<?xml version="1.0" encoding="UTF-8" standalone="no" ?>
<gpx xmlns="http://www.topografix.com/GPX/1/1" xmlns:xsi="http://www.w3.org/2001/XMLSchema-instance" xsi:schemaLocation="http://www.topografix.com/GPX/1/1 http://www.topografix.com/GPX/1/1/gpx.xsd" version="1.1" creator="VisuGPX - https://www.visugpx.com">
  <metadata>
    <name>Fontaine du bandit et pointe d\' Alziccio</name>
    <desc><![CDATA[FONTAINE du bandit ,pointe d\'Alziccio]]></desc>
  </metadata>
  <trk>
    <name><![CDATA[15 janv. 2015 10:13:21]]></name>
    <cmt><![CDATA[15 janv. 2015 10:13:21]]></cmt>
    <trkseg>
      <trkpt lat="41.97028" lon="9.00698">
        <ele>756</ele>
        <time>2015-01-15T09:13:21Z</time>
      </trkpt>
      <trkpt lat="41.97025" lon="9.00691">
        <ele>739</ele>
        <time>2015-01-15T09:13:58Z</time>
      </trkpt>
      <trkpt lat="41.97015" lon="9.00679">
        <ele>730</ele>
        <time>2015-01-15T09:14:37Z</time>
      </trkpt>
      <trkpt lat="41.97007" lon="9.00668">
        <ele>724</ele>
        <time>2015-01-15T09:15:09Z</time>
      </trkpt>
      <trkpt lat="41.97012" lon="9.00657">
        <ele>724</ele>
        <time>2015-01-15T09:15:25Z</time>
      </trkpt>
      <trkpt lat="41.97021" lon="9.00647">
        <ele>726</ele>
        <time>2015-01-15T09:15:38Z</time>
      </trkpt>
      <trkpt lat="41.97017" lon="9.00645">
        <ele>723</ele>
        <time>2015-01-15T09:16:06Z</time>
      </trkpt>
      <trkpt lat="41.97007" lon="9.0065">
        <ele>714</ele>
        <time>2015-01-15T09:16:17Z</time>
      </trkpt>
      <trkpt lat="41.97004" lon="9.00652">
        <ele>716</ele>
        <time>2015-01-15T09:16:31Z</time>
      </trkpt>
      <trkpt lat="41.97006" lon="9.00666">
        <ele>717</ele>
        <time>2015-01-15T09:17:26Z</time>
      </trkpt>
      <trkpt lat="41.97009" lon="9.00673">
        <ele>724</ele>
        <time>2015-01-15T09:18:28Z</time>
      </trkpt>
      <trkpt lat="41.97011" lon="9.00676">
        <ele>725</ele>
        <time>2015-01-15T09:18:50Z</time>
      </trkpt>
      <trkpt lat="41.97015" lon="9.00682">
        <ele>724</ele>
        <time>2015-01-15T09:18:59Z</time>
      </trkpt>
      <trkpt lat="41.9703" lon="9.00683">
        <ele>723</ele>
        <time>2015-01-15T09:19:17Z</time>
      </trkpt>
      <trkpt lat="41.97042" lon="9.00704">
        <ele>722</ele>
        <time>2015-01-15T09:19:46Z</time>
      </trkpt>
      <trkpt lat="41.97055" lon="9.00738">
        <ele>712</ele>
        <time>2015-01-15T09:20:28Z</time>
      </trkpt>
      <trkpt lat="41.97057" lon="9.00751">
        <ele>710</ele>
        <time>2015-01-15T09:20:38Z</time>
      </trkpt>
      <trkpt lat="41.97058" lon="9.00793">
        <ele>724</ele>
        <time>2015-01-15T09:21:04Z</time>
      </trkpt>
      <trkpt lat="41.97053" lon="9.00817">
        <ele>723</ele>
        <time>2015-01-15T09:21:20Z</time>
      </trkpt>
      <trkpt lat="41.97037" lon="9.00843">
        <ele>728</ele>
        <time>2015-01-15T09:21:45Z</time>
      </trkpt>
      <trkpt lat="41.97043" lon="9.00857">
        <ele>730</ele>
        <time>2015-01-15T09:22:06Z</time>
      </trkpt>
      <trkpt lat="41.97064" lon="9.00886">
        <ele>724</ele>
        <time>2015-01-15T09:22:41Z</time>
      </trkpt>
      <trkpt lat="41.97072" lon="9.009">
        <ele>725</ele>
        <time>2015-01-15T09:22:55Z</time>
      </trkpt>
      <trkpt lat="41.97076" lon="9.00915">
        <ele>732</ele>
        <time>2015-01-15T09:23:11Z</time>
      </trkpt>
      <trkpt lat="41.9708" lon="9.00928">
        <ele>732</ele>
        <time>2015-01-15T09:23:18Z</time>
      </trkpt>
      <trkpt lat="41.97089" lon="9.0095">
        <ele>727</ele>
        <time>2015-01-15T09:23:34Z</time>
      </trkpt>
      <trkpt lat="41.97098" lon="9.0097">
        <ele>730</ele>
        <time>2015-01-15T09:23:51Z</time>
      </trkpt>
      <trkpt lat="41.97102" lon="9.0098">
        <ele>729</ele>
        <time>2015-01-15T09:24:01Z</time>
      </trkpt>
      <trkpt lat="41.97101" lon="9.00989">
        <ele>732</ele>
        <time>2015-01-15T09:24:10Z</time>
      </trkpt>
      <trkpt lat="41.97097" lon="9.00992">
        <ele>734</ele>
        <time>2015-01-15T09:24:16Z</time>
      </trkpt>
      <trkpt lat="41.9709" lon="9.00996">
        <ele>734</ele>
        <time>2015-01-15T09:24:22Z</time>
      </trkpt>
      <trkpt lat="41.97085" lon="9.00999">
        <ele>734</ele>
        <time>2015-01-15T09:24:30Z</time>
      </trkpt>
      <trkpt lat="41.9708" lon="9.01003">
        <ele>734</ele>
        <time>2015-01-15T09:24:36Z</time>
      </trkpt>
      <trkpt lat="41.97074" lon="9.01004">
        <ele>734</ele>
        <time>2015-01-15T09:24:42Z</time>
      </trkpt>
      <trkpt lat="41.97069" lon="9.01014">
        <ele>734</ele>
        <time>2015-01-15T09:24:55Z</time>
      </trkpt>
      <trkpt lat="41.97074" lon="9.01026">
        <ele>733</ele>
        <time>2015-01-15T09:25:10Z</time>
      </trkpt>
      <trkpt lat="41.97072" lon="9.01038">
        <ele>734</ele>
        <time>2015-01-15T09:25:19Z</time>
      </trkpt>
      <trkpt lat="41.97071" lon="9.01048">
        <ele>746</ele>
        <time>2015-01-15T09:25:35Z</time>
      </trkpt>
      <trkpt lat="41.97075" lon="9.01062">
        <ele>749</ele>
        <time>2015-01-15T09:25:43Z</time>
      </trkpt>
      <trkpt lat="41.97087" lon="9.01082">
        <ele>750</ele>
        <time>2015-01-15T09:25:59Z</time>
      </trkpt>
      <trkpt lat="41.97095" lon="9.01085">
        <ele>748</ele>
        <time>2015-01-15T09:26:11Z</time>
      </trkpt>
      <trkpt lat="41.97106" lon="9.01091">
        <ele>748</ele>
        <time>2015-01-15T09:26:27Z</time>
      </trkpt>
      <trkpt lat="41.97108" lon="9.01089">
        <ele>749</ele>
        <time>2015-01-15T09:26:34Z</time>
      </trkpt>
      <trkpt lat="41.97117" lon="9.01092">
        <ele>750</ele>
        <time>2015-01-15T09:26:43Z</time>
      </trkpt>
      <trkpt lat="41.97124" lon="9.01097">
        <ele>748</ele>
        <time>2015-01-15T09:26:51Z</time>
      </trkpt>
      <trkpt lat="41.97139" lon="9.01113">
        <ele>746</ele>
        <time>2015-01-15T09:27:11Z</time>
      </trkpt>
      <trkpt lat="41.97143" lon="9.01125">
        <ele>747</ele>
        <time>2015-01-15T09:27:21Z</time>
      </trkpt>
      <trkpt lat="41.97146" lon="9.01137">
        <ele>747</ele>
        <time>2015-01-15T09:27:33Z</time>
      </trkpt>
      <trkpt lat="41.97148" lon="9.01142">
        <ele>744</ele>
        <time>2015-01-15T09:27:44Z</time>
      </trkpt>
      <trkpt lat="41.97147" lon="9.01153">
        <ele>748</ele>
        <time>2015-01-15T09:28:24Z</time>
      </trkpt>
      <trkpt lat="41.97145" lon="9.01162">
        <ele>753</ele>
        <time>2015-01-15T09:29:17Z</time>
      </trkpt>
      <trkpt lat="41.97141" lon="9.01166">
        <ele>753</ele>
        <time>2015-01-15T09:29:24Z</time>
      </trkpt>
      <trkpt lat="41.97135" lon="9.01172">
        <ele>753</ele>
        <time>2015-01-15T09:29:31Z</time>
      </trkpt>
      <trkpt lat="41.97125" lon="9.01192">
        <ele>748</ele>
        <time>2015-01-15T09:29:57Z</time>
      </trkpt>
      <trkpt lat="41.97121" lon="9.01196">
        <ele>749</ele>
        <time>2015-01-15T09:30:08Z</time>
      </trkpt>
      <trkpt lat="41.9711" lon="9.01202">
        <ele>749</ele>
        <time>2015-01-15T09:30:18Z</time>
      </trkpt>
      <trkpt lat="41.97102" lon="9.01209">
        <ele>750</ele>
        <time>2015-01-15T09:30:23Z</time>
      </trkpt>
      <trkpt lat="41.97097" lon="9.01222">
        <ele>752</ele>
        <time>2015-01-15T09:30:27Z</time>
      </trkpt>
      <trkpt lat="41.97096" lon="9.01255">
        <ele>758</ele>
        <time>2015-01-15T09:30:53Z</time>
      </trkpt>
      <trkpt lat="41.97091" lon="9.01268">
        <ele>757</ele>
        <time>2015-01-15T09:31:04Z</time>
      </trkpt>
      <trkpt lat="41.97095" lon="9.01282">
        <ele>763</ele>
        <time>2015-01-15T09:31:17Z</time>
      </trkpt>
      <trkpt lat="41.97118" lon="9.01304">
        <ele>771</ele>
        <time>2015-01-15T09:31:51Z</time>
      </trkpt>
      <trkpt lat="41.97126" lon="9.01317">
        <ele>772</ele>
        <time>2015-01-15T09:32:06Z</time>
      </trkpt>
      <trkpt lat="41.97154" lon="9.01354">
        <ele>764</ele>
        <time>2015-01-15T09:32:43Z</time>
      </trkpt>
      <trkpt lat="41.97162" lon="9.01361">
        <ele>761</ele>
        <time>2015-01-15T09:32:54Z</time>
      </trkpt>
      <trkpt lat="41.97167" lon="9.01373">
        <ele>758</ele>
        <time>2015-01-15T09:33:06Z</time>
      </trkpt>
      <trkpt lat="41.97166" lon="9.01385">
        <ele>755</ele>
        <time>2015-01-15T09:33:18Z</time>
      </trkpt>
      <trkpt lat="41.9716" lon="9.01394">
        <ele>756</ele>
        <time>2015-01-15T09:33:28Z</time>
      </trkpt>
      <trkpt lat="41.97138" lon="9.01418">
        <ele>764</ele>
        <time>2015-01-15T09:33:59Z</time>
      </trkpt>
      <trkpt lat="41.97131" lon="9.01428">
        <ele>766</ele>
        <time>2015-01-15T09:34:12Z</time>
      </trkpt>
      <trkpt lat="41.9713" lon="9.01452">
        <ele>780</ele>
        <time>2015-01-15T09:34:32Z</time>
      </trkpt>
      <trkpt lat="41.97133" lon="9.01465">
        <ele>782</ele>
        <time>2015-01-15T09:34:36Z</time>
      </trkpt>
      <trkpt lat="41.97138" lon="9.01468">
        <ele>782</ele>
        <time>2015-01-15T09:34:43Z</time>
      </trkpt>
      <trkpt lat="41.97148" lon="9.01468">
        <ele>780</ele>
        <time>2015-01-15T09:34:53Z</time>
      </trkpt>
      <trkpt lat="41.97154" lon="9.01476">
        <ele>778</ele>
        <time>2015-01-15T09:35:00Z</time>
      </trkpt>
      <trkpt lat="41.97162" lon="9.01488">
        <ele>776</ele>
        <time>2015-01-15T09:35:17Z</time>
      </trkpt>
      <trkpt lat="41.9717" lon="9.01494">
        <ele>768</ele>
        <time>2015-01-15T09:35:41Z</time>
      </trkpt>
      <trkpt lat="41.97173" lon="9.01484">
        <ele>771</ele>
        <time>2015-01-15T09:36:05Z</time>
      </trkpt>
      <trkpt lat="41.97179" lon="9.01494">
        <ele>773</ele>
        <time>2015-01-15T09:36:15Z</time>
      </trkpt>
      <trkpt lat="41.97175" lon="9.01506">
        <ele>775</ele>
        <time>2015-01-15T09:36:23Z</time>
      </trkpt>
      <trkpt lat="41.97171" lon="9.01517">
        <ele>778</ele>
        <time>2015-01-15T09:36:35Z</time>
      </trkpt>
      <trkpt lat="41.97173" lon="9.01522">
        <ele>783</ele>
        <time>2015-01-15T09:36:46Z</time>
      </trkpt>
      <trkpt lat="41.9718" lon="9.01523">
        <ele>785</ele>
        <time>2015-01-15T09:39:04Z</time>
      </trkpt>
      <trkpt lat="41.97187" lon="9.01526">
        <ele>784</ele>
        <time>2015-01-15T09:39:30Z</time>
      </trkpt>
      <trkpt lat="41.97196" lon="9.01526">
        <ele>788</ele>
        <time>2015-01-15T09:39:48Z</time>
      </trkpt>
      <trkpt lat="41.97207" lon="9.01533">
        <ele>787</ele>
        <time>2015-01-15T09:40:07Z</time>
      </trkpt>
      <trkpt lat="41.97209" lon="9.01537">
        <ele>783</ele>
        <time>2015-01-15T09:40:13Z</time>
      </trkpt>
      <trkpt lat="41.97214" lon="9.01538">
        <ele>768</ele>
        <time>2015-01-15T09:41:21Z</time>
      </trkpt>
      <trkpt lat="41.97224" lon="9.01535">
        <ele>768</ele>
        <time>2015-01-15T09:41:30Z</time>
      </trkpt>
      <trkpt lat="41.97253" lon="9.01528">
        <ele>779</ele>
        <time>2015-01-15T09:42:02Z</time>
      </trkpt>
      <trkpt lat="41.97271" lon="9.01536">
        <ele>784</ele>
        <time>2015-01-15T09:42:22Z</time>
      </trkpt>
      <trkpt lat="41.9728" lon="9.01542">
        <ele>784</ele>
        <time>2015-01-15T09:42:30Z</time>
      </trkpt>
      <trkpt lat="41.97288" lon="9.01548">
        <ele>783</ele>
        <time>2015-01-15T09:42:39Z</time>
      </trkpt>
      <trkpt lat="41.97315" lon="9.01584">
        <ele>773</ele>
        <time>2015-01-15T09:43:21Z</time>
      </trkpt>
      <trkpt lat="41.9732" lon="9.01592">
        <ele>772</ele>
        <time>2015-01-15T09:43:29Z</time>
      </trkpt>
      <trkpt lat="41.97323" lon="9.01605">
        <ele>771</ele>
        <time>2015-01-15T09:43:37Z</time>
      </trkpt>
      <trkpt lat="41.97319" lon="9.01615">
        <ele>772</ele>
        <time>2015-01-15T09:43:52Z</time>
      </trkpt>
      <trkpt lat="41.97315" lon="9.01619">
        <ele>772</ele>
        <time>2015-01-15T09:43:57Z</time>
      </trkpt>
      <trkpt lat="41.97307" lon="9.01625">
        <ele>774</ele>
        <time>2015-01-15T09:44:11Z</time>
      </trkpt>
      <trkpt lat="41.97296" lon="9.01635">
        <ele>767</ele>
        <time>2015-01-15T09:44:29Z</time>
      </trkpt>
      <trkpt lat="41.97291" lon="9.01641">
        <ele>769</ele>
        <time>2015-01-15T09:44:48Z</time>
      </trkpt>
      <trkpt lat="41.9729" lon="9.01648">
        <ele>782</ele>
        <time>2015-01-15T09:45:09Z</time>
      </trkpt>
      <trkpt lat="41.97285" lon="9.01653">
        <ele>788</ele>
        <time>2015-01-15T09:45:17Z</time>
      </trkpt>
      <trkpt lat="41.97276" lon="9.01656">
        <ele>790</ele>
        <time>2015-01-15T09:45:32Z</time>
      </trkpt>
      <trkpt lat="41.97283" lon="9.01665">
        <ele>791</ele>
        <time>2015-01-15T09:45:48Z</time>
      </trkpt>
      <trkpt lat="41.97291" lon="9.01673">
        <ele>791</ele>
        <time>2015-01-15T09:45:58Z</time>
      </trkpt>
      <trkpt lat="41.97295" lon="9.01684">
        <ele>793</ele>
        <time>2015-01-15T09:46:09Z</time>
      </trkpt>
      <trkpt lat="41.9731" lon="9.01703">
        <ele>787</ele>
        <time>2015-01-15T09:46:28Z</time>
      </trkpt>
      <trkpt lat="41.97308" lon="9.01722">
        <ele>784</ele>
        <time>2015-01-15T09:46:56Z</time>
      </trkpt>
      <trkpt lat="41.97307" lon="9.01734">
        <ele>785</ele>
        <time>2015-01-15T09:47:05Z</time>
      </trkpt>
      <trkpt lat="41.97311" lon="9.01745">
        <ele>788</ele>
        <time>2015-01-15T09:47:19Z</time>
      </trkpt>
      <trkpt lat="41.97311" lon="9.0176">
        <ele>786</ele>
        <time>2015-01-15T09:47:25Z</time>
      </trkpt>
      <trkpt lat="41.97312" lon="9.01773">
        <ele>788</ele>
        <time>2015-01-15T09:47:31Z</time>
      </trkpt>
      <trkpt lat="41.97302" lon="9.01784">
        <ele>794</ele>
        <time>2015-01-15T09:47:48Z</time>
      </trkpt>
      <trkpt lat="41.97295" lon="9.01796">
        <ele>794</ele>
        <time>2015-01-15T09:48:07Z</time>
      </trkpt>
      <trkpt lat="41.97296" lon="9.01804">
        <ele>793</ele>
        <time>2015-01-15T09:48:21Z</time>
      </trkpt>
      <trkpt lat="41.97302" lon="9.01816">
        <ele>790</ele>
        <time>2015-01-15T09:48:35Z</time>
      </trkpt>
      <trkpt lat="41.97313" lon="9.01824">
        <ele>796</ele>
        <time>2015-01-15T09:48:53Z</time>
      </trkpt>
      <trkpt lat="41.97318" lon="9.01826">
        <ele>802</ele>
        <time>2015-01-15T09:49:09Z</time>
      </trkpt>
      <trkpt lat="41.97328" lon="9.01825">
        <ele>803</ele>
        <time>2015-01-15T09:49:18Z</time>
      </trkpt>
      <trkpt lat="41.97334" lon="9.01824">
        <ele>802</ele>
        <time>2015-01-15T09:49:21Z</time>
      </trkpt>
      <trkpt lat="41.97348" lon="9.01823">
        <ele>802</ele>
        <time>2015-01-15T09:49:37Z</time>
      </trkpt>
      <trkpt lat="41.97359" lon="9.01822">
        <ele>801</ele>
        <time>2015-01-15T09:49:42Z</time>
      </trkpt>
      <trkpt lat="41.97369" lon="9.01821">
        <ele>803</ele>
        <time>2015-01-15T09:49:56Z</time>
      </trkpt>
      <trkpt lat="41.97394" lon="9.01839">
        <ele>796</ele>
        <time>2015-01-15T09:50:22Z</time>
      </trkpt>
      <trkpt lat="41.974" lon="9.01846">
        <ele>797</ele>
        <time>2015-01-15T09:50:31Z</time>
      </trkpt>
      <trkpt lat="41.9741" lon="9.01855">
        <ele>798</ele>
        <time>2015-01-15T09:50:47Z</time>
      </trkpt>
      <trkpt lat="41.97418" lon="9.01868">
        <ele>792</ele>
        <time>2015-01-15T09:51:00Z</time>
      </trkpt>
      <trkpt lat="41.97418" lon="9.01877">
        <ele>792</ele>
        <time>2015-01-15T09:51:16Z</time>
      </trkpt>
      <trkpt lat="41.97414" lon="9.01897">
        <ele>802</ele>
        <time>2015-01-15T09:51:52Z</time>
      </trkpt>
      <trkpt lat="41.97419" lon="9.01914">
        <ele>808</ele>
        <time>2015-01-15T09:52:08Z</time>
      </trkpt>
      <trkpt lat="41.97427" lon="9.01926">
        <ele>813</ele>
        <time>2015-01-15T09:52:25Z</time>
      </trkpt>
      <trkpt lat="41.9743" lon="9.01926">
        <ele>814</ele>
        <time>2015-01-15T09:52:32Z</time>
      </trkpt>
      <trkpt lat="41.97439" lon="9.01933">
        <ele>814</ele>
        <time>2015-01-15T09:52:41Z</time>
      </trkpt>
      <trkpt lat="41.97451" lon="9.01948">
        <ele>804</ele>
        <time>2015-01-15T09:53:03Z</time>
      </trkpt>
      <trkpt lat="41.97452" lon="9.01961">
        <ele>803</ele>
        <time>2015-01-15T09:54:23Z</time>
      </trkpt>
      <trkpt lat="41.97451" lon="9.01965">
        <ele>805</ele>
        <time>2015-01-15T09:55:55Z</time>
      </trkpt>
      <trkpt lat="41.9745" lon="9.01976">
        <ele>805</ele>
        <time>2015-01-15T09:56:07Z</time>
      </trkpt>
      <trkpt lat="41.97454" lon="9.0201">
        <ele>796</ele>
        <time>2015-01-15T09:56:36Z</time>
      </trkpt>
      <trkpt lat="41.97457" lon="9.02021">
        <ele>796</ele>
        <time>2015-01-15T09:56:48Z</time>
      </trkpt>
      <trkpt lat="41.97452" lon="9.02037">
        <ele>803</ele>
        <time>2015-01-15T09:57:25Z</time>
      </trkpt>
      <trkpt lat="41.97444" lon="9.02067">
        <ele>814</ele>
        <time>2015-01-15T09:58:01Z</time>
      </trkpt>
      <trkpt lat="41.97445" lon="9.02074">
        <ele>812</ele>
        <time>2015-01-15T09:58:11Z</time>
      </trkpt>
      <trkpt lat="41.97443" lon="9.02081">
        <ele>808</ele>
        <time>2015-01-15T09:58:26Z</time>
      </trkpt>
      <trkpt lat="41.97444" lon="9.02091">
        <ele>808</ele>
        <time>2015-01-15T09:58:52Z</time>
      </trkpt>
      <trkpt lat="41.9744" lon="9.02097">
        <ele>819</ele>
        <time>2015-01-15T09:59:10Z</time>
      </trkpt>
      <trkpt lat="41.97444" lon="9.02108">
        <ele>828</ele>
        <time>2015-01-15T09:59:42Z</time>
      </trkpt>
      <trkpt lat="41.97443" lon="9.02117">
        <ele>831</ele>
        <time>2015-01-15T10:00:11Z</time>
      </trkpt>
      <trkpt lat="41.97442" lon="9.02123">
        <ele>832</ele>
        <time>2015-01-15T10:00:56Z</time>
      </trkpt>
      <trkpt lat="41.97437" lon="9.0212">
        <ele>834</ele>
        <time>2015-01-15T10:01:06Z</time>
      </trkpt>
      <trkpt lat="41.97435" lon="9.02118">
        <ele>834</ele>
        <time>2015-01-15T10:02:14Z</time>
      </trkpt>
      <trkpt lat="41.97428" lon="9.02121">
        <ele>835</ele>
        <time>2015-01-15T10:03:29Z</time>
      </trkpt>
      <trkpt lat="41.97432" lon="9.02125">
        <ele>828</ele>
        <time>2015-01-15T10:03:55Z</time>
      </trkpt>
      <trkpt lat="41.97435" lon="9.02122">
        <ele>829</ele>
        <time>2015-01-15T10:04:31Z</time>
      </trkpt>
      <trkpt lat="41.97447" lon="9.02119">
        <ele>826</ele>
        <time>2015-01-15T10:04:52Z</time>
      </trkpt>
      <trkpt lat="41.97445" lon="9.02125">
        <ele>820</ele>
        <time>2015-01-15T10:06:07Z</time>
      </trkpt>
      <trkpt lat="41.97439" lon="9.02129">
        <ele>822</ele>
        <time>2015-01-15T10:06:28Z</time>
      </trkpt>
      <trkpt lat="41.97438" lon="9.02138">
        <ele>826</ele>
        <time>2015-01-15T10:10:51Z</time>
      </trkpt>
      <trkpt lat="41.97437" lon="9.0215">
        <ele>829</ele>
        <time>2015-01-15T10:11:07Z</time>
      </trkpt>
      <trkpt lat="41.97438" lon="9.02158">
        <ele>833</ele>
        <time>2015-01-15T10:11:22Z</time>
      </trkpt>
      <trkpt lat="41.97442" lon="9.02163">
        <ele>835</ele>
        <time>2015-01-15T10:11:43Z</time>
      </trkpt>
      <trkpt lat="41.97453" lon="9.02169">
        <ele>835</ele>
        <time>2015-01-15T10:11:51Z</time>
      </trkpt>
      <trkpt lat="41.97461" lon="9.02171">
        <ele>838</ele>
        <time>2015-01-15T10:12:19Z</time>
      </trkpt>
      <trkpt lat="41.97473" lon="9.02173">
        <ele>828</ele>
        <time>2015-01-15T10:13:27Z</time>
      </trkpt>
      <trkpt lat="41.97476" lon="9.02174">
        <ele>833</ele>
        <time>2015-01-15T10:14:41Z</time>
      </trkpt>
      <trkpt lat="41.9748" lon="9.02178">
        <ele>833</ele>
        <time>2015-01-15T10:14:45Z</time>
      </trkpt>
      <trkpt lat="41.97479" lon="9.02182">
        <ele>832</ele>
        <time>2015-01-15T10:14:51Z</time>
      </trkpt>
      <trkpt lat="41.9748" lon="9.02194">
        <ele>829</ele>
        <time>2015-01-15T10:15:13Z</time>
      </trkpt>
      <trkpt lat="41.97489" lon="9.02222">
        <ele>840</ele>
        <time>2015-01-15T10:16:02Z</time>
      </trkpt>
      <trkpt lat="41.97493" lon="9.02233">
        <ele>839</ele>
        <time>2015-01-15T10:16:36Z</time>
      </trkpt>
      <trkpt lat="41.97502" lon="9.02239">
        <ele>834</ele>
        <time>2015-01-15T10:16:56Z</time>
      </trkpt>
      <trkpt lat="41.97512" lon="9.02249">
        <ele>836</ele>
        <time>2015-01-15T10:17:17Z</time>
      </trkpt>
      <trkpt lat="41.97518" lon="9.02251">
        <ele>836</ele>
        <time>2015-01-15T10:17:25Z</time>
      </trkpt>
      <trkpt lat="41.97522" lon="9.02253">
        <ele>839</ele>
        <time>2015-01-15T10:17:37Z</time>
      </trkpt>
      <trkpt lat="41.97531" lon="9.0226">
        <ele>838</ele>
        <time>2015-01-15T10:17:46Z</time>
      </trkpt>
      <trkpt lat="41.9754" lon="9.02257">
        <ele>836</ele>
        <time>2015-01-15T10:18:01Z</time>
      </trkpt>
      <trkpt lat="41.97554" lon="9.02247">
        <ele>839</ele>
        <time>2015-01-15T10:18:14Z</time>
      </trkpt>
      <trkpt lat="41.97562" lon="9.02248">
        <ele>847</ele>
        <time>2015-01-15T10:18:40Z</time>
      </trkpt>
      <trkpt lat="41.97566" lon="9.0225">
        <ele>844</ele>
        <time>2015-01-15T10:18:48Z</time>
      </trkpt>
      <trkpt lat="41.97571" lon="9.02254">
        <ele>842</ele>
        <time>2015-01-15T10:19:08Z</time>
      </trkpt>
      <trkpt lat="41.97569" lon="9.0226">
        <ele>843</ele>
        <time>2015-01-15T10:19:28Z</time>
      </trkpt>
      <trkpt lat="41.97567" lon="9.02267">
        <ele>848</ele>
        <time>2015-01-15T10:19:46Z</time>
      </trkpt>
      <trkpt lat="41.97557" lon="9.02279">
        <ele>859</ele>
        <time>2015-01-15T10:20:41Z</time>
      </trkpt>
      <trkpt lat="41.97554" lon="9.02277">
        <ele>860</ele>
        <time>2015-01-15T10:20:55Z</time>
      </trkpt>
      <trkpt lat="41.97551" lon="9.02286">
        <ele>858</ele>
        <time>2015-01-15T10:21:29Z</time>
      </trkpt>
      <trkpt lat="41.97548" lon="9.02291">
        <ele>859</ele>
        <time>2015-01-15T10:21:34Z</time>
      </trkpt>
      <trkpt lat="41.97541" lon="9.02295">
        <ele>866</ele>
        <time>2015-01-15T10:22:06Z</time>
      </trkpt>
      <trkpt lat="41.97543" lon="9.023">
        <ele>866</ele>
        <time>2015-01-15T10:22:33Z</time>
      </trkpt>
      <trkpt lat="41.9754" lon="9.023">
        <ele>861</ele>
        <time>2015-01-15T10:23:59Z</time>
      </trkpt>
      <trkpt lat="41.9754" lon="9.02307">
        <ele>864</ele>
        <time>2015-01-15T10:24:24Z</time>
      </trkpt>
      <trkpt lat="41.97537" lon="9.0231">
        <ele>863</ele>
        <time>2015-01-15T10:24:55Z</time>
      </trkpt>
      <trkpt lat="41.97531" lon="9.02321">
        <ele>862</ele>
        <time>2015-01-15T10:25:29Z</time>
      </trkpt>
      <trkpt lat="41.97532" lon="9.02329">
        <ele>865</ele>
        <time>2015-01-15T10:25:50Z</time>
      </trkpt>
      <trkpt lat="41.97531" lon="9.02335">
        <ele>864</ele>
        <time>2015-01-15T10:26:06Z</time>
      </trkpt>
      <trkpt lat="41.97529" lon="9.02352">
        <ele>869</ele>
        <time>2015-01-15T10:26:45Z</time>
      </trkpt>
      <trkpt lat="41.97525" lon="9.02357">
        <ele>871</ele>
        <time>2015-01-15T10:27:01Z</time>
      </trkpt>
      <trkpt lat="41.97509" lon="9.02374">
        <ele>878</ele>
        <time>2015-01-15T10:27:32Z</time>
      </trkpt>
      <trkpt lat="41.97499" lon="9.02378">
        <ele>883</ele>
        <time>2015-01-15T10:28:00Z</time>
      </trkpt>
      <trkpt lat="41.97487" lon="9.02382">
        <ele>884</ele>
        <time>2015-01-15T10:28:09Z</time>
      </trkpt>
      <trkpt lat="41.97484" lon="9.02382">
        <ele>884</ele>
        <time>2015-01-15T10:28:20Z</time>
      </trkpt>
      <trkpt lat="41.9748" lon="9.02379">
        <ele>883</ele>
        <time>2015-01-15T10:28:26Z</time>
      </trkpt>
      <trkpt lat="41.97475" lon="9.02376">
        <ele>885</ele>
        <time>2015-01-15T10:28:33Z</time>
      </trkpt>
      <trkpt lat="41.97472" lon="9.02377">
        <ele>886</ele>
        <time>2015-01-15T10:28:45Z</time>
      </trkpt>
      <trkpt lat="41.97475" lon="9.02382">
        <ele>884</ele>
        <time>2015-01-15T10:28:52Z</time>
      </trkpt>
      <trkpt lat="41.97476" lon="9.02394">
        <ele>881</ele>
        <time>2015-01-15T10:29:02Z</time>
      </trkpt>
      <trkpt lat="41.97496" lon="9.0242">
        <ele>868</ele>
        <time>2015-01-15T10:29:37Z</time>
      </trkpt>
      <trkpt lat="41.97508" lon="9.0243">
        <ele>867</ele>
        <time>2015-01-15T10:29:54Z</time>
      </trkpt>
      <trkpt lat="41.97514" lon="9.02443">
        <ele>868</ele>
        <time>2015-01-15T10:30:12Z</time>
      </trkpt>
      <trkpt lat="41.97515" lon="9.02457">
        <ele>871</ele>
        <time>2015-01-15T10:30:21Z</time>
      </trkpt>
      <trkpt lat="41.97516" lon="9.02463">
        <ele>869</ele>
        <time>2015-01-15T10:30:29Z</time>
      </trkpt>
      <trkpt lat="41.97516" lon="9.02467">
        <ele>865</ele>
        <time>2015-01-15T10:30:41Z</time>
      </trkpt>
      <trkpt lat="41.97517" lon="9.02469">
        <ele>870</ele>
        <time>2015-01-15T10:31:27Z</time>
      </trkpt>
      <trkpt lat="41.97523" lon="9.02475">
        <ele>871</ele>
        <time>2015-01-15T10:32:11Z</time>
      </trkpt>
      <trkpt lat="41.97533" lon="9.0249">
        <ele>875</ele>
        <time>2015-01-15T10:34:27Z</time>
      </trkpt>
      <trkpt lat="41.97536" lon="9.02494">
        <ele>877</ele>
        <time>2015-01-15T10:34:32Z</time>
      </trkpt>
      <trkpt lat="41.9754" lon="9.02509">
        <ele>874</ele>
        <time>2015-01-15T10:34:54Z</time>
      </trkpt>
      <trkpt lat="41.97549" lon="9.02516">
        <ele>870</ele>
        <time>2015-01-15T10:35:12Z</time>
      </trkpt>
      <trkpt lat="41.97552" lon="9.02519">
        <ele>873</ele>
        <time>2015-01-15T10:36:27Z</time>
      </trkpt>
      <trkpt lat="41.97556" lon="9.02518">
        <ele>874</ele>
        <time>2015-01-15T10:36:52Z</time>
      </trkpt>
      <trkpt lat="41.97558" lon="9.02525">
        <ele>875</ele>
        <time>2015-01-15T10:37:21Z</time>
      </trkpt>
      <trkpt lat="41.97564" lon="9.02534">
        <ele>873</ele>
        <time>2015-01-15T10:37:32Z</time>
      </trkpt>
      <trkpt lat="41.97567" lon="9.02545">
        <ele>873</ele>
        <time>2015-01-15T10:37:43Z</time>
      </trkpt>
      <trkpt lat="41.97571" lon="9.02551">
        <ele>869</ele>
        <time>2015-01-15T10:37:51Z</time>
      </trkpt>
      <trkpt lat="41.97572" lon="9.02558">
        <ele>868</ele>
        <time>2015-01-15T10:38:13Z</time>
      </trkpt>
      <trkpt lat="41.97582" lon="9.02588">
        <ele>872</ele>
        <time>2015-01-15T10:38:41Z</time>
      </trkpt>
      <trkpt lat="41.97586" lon="9.02609">
        <ele>869</ele>
        <time>2015-01-15T10:38:57Z</time>
      </trkpt>
      <trkpt lat="41.9759" lon="9.02624">
        <ele>871</ele>
        <time>2015-01-15T10:39:13Z</time>
      </trkpt>
      <trkpt lat="41.97593" lon="9.02629">
        <ele>869</ele>
        <time>2015-01-15T10:39:18Z</time>
      </trkpt>
      <trkpt lat="41.97604" lon="9.02645">
        <ele>874</ele>
        <time>2015-01-15T10:39:46Z</time>
      </trkpt>
      <trkpt lat="41.97611" lon="9.02653">
        <ele>875</ele>
        <time>2015-01-15T10:39:59Z</time>
      </trkpt>
      <trkpt lat="41.97612" lon="9.02658">
        <ele>869</ele>
        <time>2015-01-15T10:40:58Z</time>
      </trkpt>
      <trkpt lat="41.9761" lon="9.02663">
        <ele>868</ele>
        <time>2015-01-15T10:41:18Z</time>
      </trkpt>
      <trkpt lat="41.97609" lon="9.02674">
        <ele>870</ele>
        <time>2015-01-15T10:41:28Z</time>
      </trkpt>
      <trkpt lat="41.9762" lon="9.02675">
        <ele>869</ele>
        <time>2015-01-15T10:41:56Z</time>
      </trkpt>
      <trkpt lat="41.97628" lon="9.02681">
        <ele>869</ele>
        <time>2015-01-15T10:42:07Z</time>
      </trkpt>
      <trkpt lat="41.97624" lon="9.02688">
        <ele>871</ele>
        <time>2015-01-15T10:42:20Z</time>
      </trkpt>
      <trkpt lat="41.97618" lon="9.02698">
        <ele>870</ele>
        <time>2015-01-15T10:42:34Z</time>
      </trkpt>
      <trkpt lat="41.97618" lon="9.0271">
        <ele>870</ele>
        <time>2015-01-15T10:42:43Z</time>
      </trkpt>
      <trkpt lat="41.97618" lon="9.02724">
        <ele>870</ele>
        <time>2015-01-15T10:42:52Z</time>
      </trkpt>
      <trkpt lat="41.97618" lon="9.02732">
        <ele>870</ele>
        <time>2015-01-15T10:42:59Z</time>
      </trkpt>
      <trkpt lat="41.97615" lon="9.02744">
        <ele>869</ele>
        <time>2015-01-15T10:43:11Z</time>
      </trkpt>
      <trkpt lat="41.9761" lon="9.02769">
        <ele>873</ele>
        <time>2015-01-15T10:43:31Z</time>
      </trkpt>
      <trkpt lat="41.97609" lon="9.02775">
        <ele>872</ele>
        <time>2015-01-15T10:43:39Z</time>
      </trkpt>
      <trkpt lat="41.97605" lon="9.02811">
        <ele>877</ele>
        <time>2015-01-15T10:44:08Z</time>
      </trkpt>
      <trkpt lat="41.97605" lon="9.02818">
        <ele>877</ele>
        <time>2015-01-15T10:44:13Z</time>
      </trkpt>
      <trkpt lat="41.97606" lon="9.02823">
        <ele>877</ele>
        <time>2015-01-15T10:44:21Z</time>
      </trkpt>
      <trkpt lat="41.97606" lon="9.02826">
        <ele>876</ele>
        <time>2015-01-15T10:44:27Z</time>
      </trkpt>
      <trkpt lat="41.97606" lon="9.02833">
        <ele>876</ele>
        <time>2015-01-15T10:44:39Z</time>
      </trkpt>
      <trkpt lat="41.97607" lon="9.02839">
        <ele>876</ele>
        <time>2015-01-15T10:44:45Z</time>
      </trkpt>
      <trkpt lat="41.97615" lon="9.02855">
        <ele>881</ele>
        <time>2015-01-15T10:45:04Z</time>
      </trkpt>
      <trkpt lat="41.97616" lon="9.02859">
        <ele>881</ele>
        <time>2015-01-15T10:45:12Z</time>
      </trkpt>
      <trkpt lat="41.97616" lon="9.02864">
        <ele>881</ele>
        <time>2015-01-15T10:45:52Z</time>
      </trkpt>
      <trkpt lat="41.97625" lon="9.02862">
        <ele>877</ele>
        <time>2015-01-15T10:46:15Z</time>
      </trkpt>
      <trkpt lat="41.97641" lon="9.02858">
        <ele>888</ele>
        <time>2015-01-15T10:46:53Z</time>
      </trkpt>
      <trkpt lat="41.97648" lon="9.02856">
        <ele>891</ele>
        <time>2015-01-15T10:47:33Z</time>
      </trkpt>
      <trkpt lat="41.97656" lon="9.02853">
        <ele>887</ele>
        <time>2015-01-15T10:48:01Z</time>
      </trkpt>
      <trkpt lat="41.97663" lon="9.02854">
        <ele>890</ele>
        <time>2015-01-15T10:48:16Z</time>
      </trkpt>
      <trkpt lat="41.97669" lon="9.02846">
        <ele>899</ele>
        <time>2015-01-15T10:48:43Z</time>
      </trkpt>
      <trkpt lat="41.97672" lon="9.02851">
        <ele>901</ele>
        <time>2015-01-15T10:50:12Z</time>
      </trkpt>
      <trkpt lat="41.97676" lon="9.02846">
        <ele>898</ele>
        <time>2015-01-15T10:50:53Z</time>
      </trkpt>
      <trkpt lat="41.97681" lon="9.02849">
        <ele>897</ele>
        <time>2015-01-15T10:51:08Z</time>
      </trkpt>
      <trkpt lat="41.97683" lon="9.0285">
        <ele>897</ele>
        <time>2015-01-15T10:51:15Z</time>
      </trkpt>
      <trkpt lat="41.97692" lon="9.02849">
        <ele>897</ele>
        <time>2015-01-15T10:51:38Z</time>
      </trkpt>
      <trkpt lat="41.97705" lon="9.02845">
        <ele>899</ele>
        <time>2015-01-15T10:52:08Z</time>
      </trkpt>
      <trkpt lat="41.97718" lon="9.02844">
        <ele>909</ele>
        <time>2015-01-15T10:52:38Z</time>
      </trkpt>
      <trkpt lat="41.9774" lon="9.02837">
        <ele>919</ele>
        <time>2015-01-15T10:53:27Z</time>
      </trkpt>
      <trkpt lat="41.97745" lon="9.0284">
        <ele>920</ele>
        <time>2015-01-15T10:53:44Z</time>
      </trkpt>
      <trkpt lat="41.97754" lon="9.02832">
        <ele>918</ele>
        <time>2015-01-15T10:54:02Z</time>
      </trkpt>
      <trkpt lat="41.9776" lon="9.02832">
        <ele>914</ele>
        <time>2015-01-15T10:54:21Z</time>
      </trkpt>
      <trkpt lat="41.97769" lon="9.02833">
        <ele>912</ele>
        <time>2015-01-15T10:54:41Z</time>
      </trkpt>
      <trkpt lat="41.97781" lon="9.0283">
        <ele>918</ele>
        <time>2015-01-15T10:55:50Z</time>
      </trkpt>
      <trkpt lat="41.97785" lon="9.02827">
        <ele>926</ele>
        <time>2015-01-15T10:56:07Z</time>
      </trkpt>
      <trkpt lat="41.97793" lon="9.02825">
        <ele>926</ele>
        <time>2015-01-15T10:56:27Z</time>
      </trkpt>
      <trkpt lat="41.97798" lon="9.02829">
        <ele>925</ele>
        <time>2015-01-15T10:57:02Z</time>
      </trkpt>
      <trkpt lat="41.97808" lon="9.02831">
        <ele>926</ele>
        <time>2015-01-15T10:57:09Z</time>
      </trkpt>
      <trkpt lat="41.97812" lon="9.02831">
        <ele>926</ele>
        <time>2015-01-15T10:57:26Z</time>
      </trkpt>
      <trkpt lat="41.97827" lon="9.0283">
        <ele>930</ele>
        <time>2015-01-15T10:58:11Z</time>
      </trkpt>
      <trkpt lat="41.97832" lon="9.02821">
        <ele>938</ele>
        <time>2015-01-15T10:58:32Z</time>
      </trkpt>
      <trkpt lat="41.97832" lon="9.02814">
        <ele>937</ele>
        <time>2015-01-15T10:58:37Z</time>
      </trkpt>
      <trkpt lat="41.97836" lon="9.02807">
        <ele>936</ele>
        <time>2015-01-15T10:58:55Z</time>
      </trkpt>
      <trkpt lat="41.97842" lon="9.02806">
        <ele>938</ele>
        <time>2015-01-15T10:59:08Z</time>
      </trkpt>
      <trkpt lat="41.97846" lon="9.02809">
        <ele>944</ele>
        <time>2015-01-15T10:59:46Z</time>
      </trkpt>
      <trkpt lat="41.97859" lon="9.02809">
        <ele>943</ele>
        <time>2015-01-15T11:00:32Z</time>
      </trkpt>
      <trkpt lat="41.97866" lon="9.02814">
        <ele>942</ele>
        <time>2015-01-15T11:01:05Z</time>
      </trkpt>
      <trkpt lat="41.97872" lon="9.02817">
        <ele>940</ele>
        <time>2015-01-15T11:01:26Z</time>
      </trkpt>
      <trkpt lat="41.97878" lon="9.0282">
        <ele>952</ele>
        <time>2015-01-15T11:02:40Z</time>
      </trkpt>
      <trkpt lat="41.97883" lon="9.02822">
        <ele>949</ele>
        <time>2015-01-15T11:03:10Z</time>
      </trkpt>
      <trkpt lat="41.97887" lon="9.02827">
        <ele>948</ele>
        <time>2015-01-15T11:03:38Z</time>
      </trkpt>
      <trkpt lat="41.97894" lon="9.02824">
        <ele>949</ele>
        <time>2015-01-15T11:04:01Z</time>
      </trkpt>
      <trkpt lat="41.979" lon="9.02816">
        <ele>950</ele>
        <time>2015-01-15T11:04:33Z</time>
      </trkpt>
      <trkpt lat="41.97909" lon="9.02816">
        <ele>954</ele>
        <time>2015-01-15T11:04:55Z</time>
      </trkpt>
      <trkpt lat="41.97914" lon="9.02814">
        <ele>955</ele>
        <time>2015-01-15T11:05:09Z</time>
      </trkpt>
      <trkpt lat="41.97921" lon="9.02812">
        <ele>960</ele>
        <time>2015-01-15T11:05:36Z</time>
      </trkpt>
      <trkpt lat="41.97922" lon="9.02805">
        <ele>963</ele>
        <time>2015-01-15T11:06:39Z</time>
      </trkpt>
      <trkpt lat="41.97928" lon="9.02793">
        <ele>971</ele>
        <time>2015-01-15T11:07:30Z</time>
      </trkpt>
      <trkpt lat="41.97934" lon="9.02784">
        <ele>970</ele>
        <time>2015-01-15T11:07:54Z</time>
      </trkpt>
      <trkpt lat="41.97942" lon="9.02779">
        <ele>970</ele>
        <time>2015-01-15T11:09:07Z</time>
      </trkpt>
      <trkpt lat="41.97945" lon="9.02786">
        <ele>978</ele>
        <time>2015-01-15T11:11:21Z</time>
      </trkpt>
      <trkpt lat="41.97947" lon="9.02795">
        <ele>980</ele>
        <time>2015-01-15T11:12:25Z</time>
      </trkpt>
      <trkpt lat="41.97948" lon="9.02803">
        <ele>980</ele>
        <time>2015-01-15T11:12:45Z</time>
      </trkpt>
      <trkpt lat="41.97956" lon="9.02804">
        <ele>980</ele>
        <time>2015-01-15T11:14:24Z</time>
      </trkpt>
      <trkpt lat="41.9796" lon="9.02811">
        <ele>983</ele>
        <time>2015-01-15T11:17:35Z</time>
      </trkpt>
      <trkpt lat="41.97965" lon="9.02815">
        <ele>984</ele>
        <time>2015-01-15T11:18:37Z</time>
      </trkpt>
      <trkpt lat="41.9797" lon="9.02818">
        <ele>990</ele>
        <time>2015-01-15T11:20:31Z</time>
      </trkpt>
      <trkpt lat="41.97969" lon="9.02826">
        <ele>987</ele>
        <time>2015-01-15T11:21:28Z</time>
      </trkpt>
      <trkpt lat="41.97979" lon="9.0282">
        <ele>985</ele>
        <time>2015-01-15T11:22:01Z</time>
      </trkpt>
      <trkpt lat="41.97974" lon="9.02812">
        <ele>990</ele>
        <time>2015-01-15T11:22:52Z</time>
      </trkpt>
      <trkpt lat="41.97966" lon="9.02815">
        <ele>993</ele>
        <time>2015-01-15T11:23:46Z</time>
      </trkpt>
      <trkpt lat="41.97963" lon="9.02808">
        <ele>992</ele>
        <time>2015-01-15T11:24:15Z</time>
      </trkpt>
      <trkpt lat="41.97959" lon="9.02807">
        <ele>992</ele>
        <time>2015-01-15T11:25:53Z</time>
      </trkpt>
      <trkpt lat="41.97954" lon="9.02799">
        <ele>996</ele>
        <time>2015-01-15T11:27:02Z</time>
      </trkpt>
      <trkpt lat="41.97946" lon="9.02795">
        <ele>995</ele>
        <time>2015-01-15T11:28:31Z</time>
      </trkpt>
      <trkpt lat="41.97953" lon="9.02783">
        <ele>992</ele>
        <time>2015-01-15T11:29:04Z</time>
      </trkpt>
      <trkpt lat="41.97946" lon="9.02778">
        <ele>983</ele>
        <time>2015-01-15T11:30:13Z</time>
      </trkpt>
      <trkpt lat="41.97944" lon="9.02768">
        <ele>980</ele>
        <time>2015-01-15T11:32:07Z</time>
      </trkpt>
      <trkpt lat="41.97942" lon="9.02771">
        <ele>975</ele>
        <time>2015-01-15T11:39:27Z</time>
      </trkpt>
      <trkpt lat="41.97938" lon="9.02771">
        <ele>975</ele>
        <time>2015-01-15T13:08:43Z</time>
      </trkpt>
      <trkpt lat="41.97937" lon="9.02775">
        <ele>976</ele>
        <time>2015-01-15T13:09:16Z</time>
      </trkpt>
      <trkpt lat="41.97935" lon="9.02778">
        <ele>976</ele>
        <time>2015-01-15T13:09:57Z</time>
      </trkpt>
      <trkpt lat="41.97928" lon="9.02789">
        <ele>971</ele>
        <time>2015-01-15T13:10:29Z</time>
      </trkpt>
      <trkpt lat="41.97926" lon="9.02791">
        <ele>972</ele>
        <time>2015-01-15T13:10:41Z</time>
      </trkpt>
      <trkpt lat="41.97927" lon="9.02799">
        <ele>972</ele>
        <time>2015-01-15T13:10:53Z</time>
      </trkpt>
      <trkpt lat="41.97924" lon="9.02803">
        <ele>975</ele>
        <time>2015-01-15T13:11:15Z</time>
      </trkpt>
      <trkpt lat="41.97923" lon="9.02812">
        <ele>973</ele>
        <time>2015-01-15T13:11:28Z</time>
      </trkpt>
      <trkpt lat="41.97919" lon="9.0281">
        <ele>974</ele>
        <time>2015-01-15T13:11:56Z</time>
      </trkpt>
      <trkpt lat="41.9791" lon="9.02808">
        <ele>969</ele>
        <time>2015-01-15T13:12:22Z</time>
      </trkpt>
      <trkpt lat="41.97907" lon="9.02809">
        <ele>969</ele>
        <time>2015-01-15T13:12:44Z</time>
      </trkpt>
      <trkpt lat="41.9789" lon="9.02814">
        <ele>956</ele>
        <time>2015-01-15T13:13:57Z</time>
      </trkpt>
      <trkpt lat="41.97884" lon="9.02816">
        <ele>953</ele>
        <time>2015-01-15T13:14:32Z</time>
      </trkpt>
      <trkpt lat="41.97879" lon="9.02815">
        <ele>953</ele>
        <time>2015-01-15T13:14:36Z</time>
      </trkpt>
      <trkpt lat="41.97874" lon="9.02813">
        <ele>954</ele>
        <time>2015-01-15T13:14:45Z</time>
      </trkpt>
      <trkpt lat="41.97873" lon="9.0281">
        <ele>952</ele>
        <time>2015-01-15T13:14:57Z</time>
      </trkpt>
      <trkpt lat="41.97868" lon="9.02807">
        <ele>951</ele>
        <time>2015-01-15T13:15:22Z</time>
      </trkpt>
      <trkpt lat="41.97865" lon="9.02807">
        <ele>950</ele>
        <time>2015-01-15T13:15:48Z</time>
      </trkpt>
      <trkpt lat="41.97859" lon="9.02815">
        <ele>950</ele>
        <time>2015-01-15T13:16:02Z</time>
      </trkpt>
      <trkpt lat="41.97856" lon="9.02816">
        <ele>946</ele>
        <time>2015-01-15T13:16:19Z</time>
      </trkpt>
      <trkpt lat="41.97849" lon="9.02818">
        <ele>948</ele>
        <time>2015-01-15T13:16:57Z</time>
      </trkpt>
      <trkpt lat="41.97838" lon="9.02814">
        <ele>942</ele>
        <time>2015-01-15T13:17:24Z</time>
      </trkpt>
      <trkpt lat="41.97834" lon="9.02817">
        <ele>942</ele>
        <time>2015-01-15T13:17:30Z</time>
      </trkpt>
      <trkpt lat="41.97831" lon="9.02821">
        <ele>939</ele>
        <time>2015-01-15T13:17:42Z</time>
      </trkpt>
      <trkpt lat="41.97828" lon="9.02822">
        <ele>939</ele>
        <time>2015-01-15T13:18:04Z</time>
      </trkpt>
      <trkpt lat="41.97826" lon="9.02826">
        <ele>939</ele>
        <time>2015-01-15T13:18:36Z</time>
      </trkpt>
      <trkpt lat="41.97822" lon="9.02828">
        <ele>939</ele>
        <time>2015-01-15T13:18:57Z</time>
      </trkpt>
      <trkpt lat="41.9782" lon="9.02826">
        <ele>937</ele>
        <time>2015-01-15T13:19:36Z</time>
      </trkpt>
      <trkpt lat="41.97817" lon="9.02826">
        <ele>939</ele>
        <time>2015-01-15T13:20:07Z</time>
      </trkpt>
      <trkpt lat="41.97808" lon="9.02828">
        <ele>935</ele>
        <time>2015-01-15T13:20:45Z</time>
      </trkpt>
      <trkpt lat="41.97797" lon="9.02831">
        <ele>934</ele>
        <time>2015-01-15T13:21:09Z</time>
      </trkpt>
      <trkpt lat="41.97793" lon="9.02833">
        <ele>932</ele>
        <time>2015-01-15T13:21:34Z</time>
      </trkpt>
      <trkpt lat="41.9779" lon="9.02833">
        <ele>932</ele>
        <time>2015-01-15T13:21:45Z</time>
      </trkpt>
      <trkpt lat="41.97781" lon="9.02833">
        <ele>935</ele>
        <time>2015-01-15T13:22:06Z</time>
      </trkpt>
      <trkpt lat="41.97772" lon="9.02834">
        <ele>923</ele>
        <time>2015-01-15T13:22:42Z</time>
      </trkpt>
      <trkpt lat="41.97759" lon="9.02837">
        <ele>920</ele>
        <time>2015-01-15T13:23:23Z</time>
      </trkpt>
      <trkpt lat="41.97751" lon="9.02835">
        <ele>920</ele>
        <time>2015-01-15T13:23:45Z</time>
      </trkpt>
      <trkpt lat="41.97746" lon="9.02834">
        <ele>916</ele>
        <time>2015-01-15T13:23:51Z</time>
      </trkpt>
      <trkpt lat="41.97739" lon="9.02838">
        <ele>911</ele>
        <time>2015-01-15T13:24:11Z</time>
      </trkpt>
      <trkpt lat="41.97735" lon="9.0284">
        <ele>911</ele>
        <time>2015-01-15T13:24:17Z</time>
      </trkpt>
      <trkpt lat="41.9773" lon="9.02841">
        <ele>910</ele>
        <time>2015-01-15T13:24:23Z</time>
      </trkpt>
      <trkpt lat="41.97724" lon="9.02842">
        <ele>910</ele>
        <time>2015-01-15T13:24:37Z</time>
      </trkpt>
      <trkpt lat="41.97719" lon="9.02842">
        <ele>907</ele>
        <time>2015-01-15T13:24:42Z</time>
      </trkpt>
      <trkpt lat="41.97715" lon="9.02848">
        <ele>905</ele>
        <time>2015-01-15T13:24:55Z</time>
      </trkpt>
      <trkpt lat="41.97713" lon="9.02848">
        <ele>904</ele>
        <time>2015-01-15T13:25:01Z</time>
      </trkpt>
      <trkpt lat="41.97709" lon="9.02845">
        <ele>904</ele>
        <time>2015-01-15T13:25:13Z</time>
      </trkpt>
      <trkpt lat="41.97707" lon="9.02844">
        <ele>903</ele>
        <time>2015-01-15T13:25:19Z</time>
      </trkpt>
      <trkpt lat="41.977" lon="9.02844">
        <ele>903</ele>
        <time>2015-01-15T13:25:30Z</time>
      </trkpt>
      <trkpt lat="41.97685" lon="9.02847">
        <ele>899</ele>
        <time>2015-01-15T13:25:52Z</time>
      </trkpt>
      <trkpt lat="41.97682" lon="9.02852">
        <ele>899</ele>
        <time>2015-01-15T13:26:00Z</time>
      </trkpt>
      <trkpt lat="41.97678" lon="9.02853">
        <ele>895</ele>
        <time>2015-01-15T13:26:29Z</time>
      </trkpt>
      <trkpt lat="41.9767" lon="9.0285">
        <ele>901</ele>
        <time>2015-01-15T13:28:28Z</time>
      </trkpt>
      <trkpt lat="41.97667" lon="9.02852">
        <ele>898</ele>
        <time>2015-01-15T13:28:52Z</time>
      </trkpt>
      <trkpt lat="41.97662" lon="9.02853">
        <ele>899</ele>
        <time>2015-01-15T13:29:01Z</time>
      </trkpt>
      <trkpt lat="41.97658" lon="9.02853">
        <ele>896</ele>
        <time>2015-01-15T13:29:10Z</time>
      </trkpt>
      <trkpt lat="41.97654" lon="9.02853">
        <ele>895</ele>
        <time>2015-01-15T13:31:25Z</time>
      </trkpt>
      <trkpt lat="41.97646" lon="9.02855">
        <ele>891</ele>
        <time>2015-01-15T13:31:59Z</time>
      </trkpt>
      <trkpt lat="41.97639" lon="9.02857">
        <ele>889</ele>
        <time>2015-01-15T13:32:25Z</time>
      </trkpt>
      <trkpt lat="41.97637" lon="9.02858">
        <ele>889</ele>
        <time>2015-01-15T13:32:47Z</time>
      </trkpt>
      <trkpt lat="41.97626" lon="9.02858">
        <ele>886</ele>
        <time>2015-01-15T13:33:11Z</time>
      </trkpt>
      <trkpt lat="41.97624" lon="9.02857">
        <ele>886</ele>
        <time>2015-01-15T13:33:17Z</time>
      </trkpt>
      <trkpt lat="41.97619" lon="9.02859">
        <ele>884</ele>
        <time>2015-01-15T13:34:27Z</time>
      </trkpt>
      <trkpt lat="41.97616" lon="9.02858">
        <ele>882</ele>
        <time>2015-01-15T13:34:38Z</time>
      </trkpt>
      <trkpt lat="41.97607" lon="9.02862">
        <ele>878</ele>
        <time>2015-01-15T13:35:13Z</time>
      </trkpt>
      <trkpt lat="41.97606" lon="9.02856">
        <ele>877</ele>
        <time>2015-01-15T13:35:23Z</time>
      </trkpt>
      <trkpt lat="41.97606" lon="9.02852">
        <ele>872</ele>
        <time>2015-01-15T13:36:38Z</time>
      </trkpt>
      <trkpt lat="41.97605" lon="9.02846">
        <ele>873</ele>
        <time>2015-01-15T13:36:47Z</time>
      </trkpt>
      <trkpt lat="41.97599" lon="9.02821">
        <ele>879</ele>
        <time>2015-01-15T13:37:19Z</time>
      </trkpt>
      <trkpt lat="41.97598" lon="9.02814">
        <ele>879</ele>
        <time>2015-01-15T13:37:24Z</time>
      </trkpt>
      <trkpt lat="41.97598" lon="9.02807">
        <ele>878</ele>
        <time>2015-01-15T13:37:29Z</time>
      </trkpt>
      <trkpt lat="41.976" lon="9.02793">
        <ele>878</ele>
        <time>2015-01-15T13:37:38Z</time>
      </trkpt>
      <trkpt lat="41.97606" lon="9.02776">
        <ele>874</ele>
        <time>2015-01-15T13:37:55Z</time>
      </trkpt>
      <trkpt lat="41.97607" lon="9.02762">
        <ele>876</ele>
        <time>2015-01-15T13:38:08Z</time>
      </trkpt>
      <trkpt lat="41.97612" lon="9.02738">
        <ele>874</ele>
        <time>2015-01-15T13:38:31Z</time>
      </trkpt>
      <trkpt lat="41.97615" lon="9.02725">
        <ele>876</ele>
        <time>2015-01-15T13:38:40Z</time>
      </trkpt>
      <trkpt lat="41.97613" lon="9.02719">
        <ele>875</ele>
        <time>2015-01-15T13:38:45Z</time>
      </trkpt>
      <trkpt lat="41.97611" lon="9.02707">
        <ele>872</ele>
        <time>2015-01-15T13:38:54Z</time>
      </trkpt>
      <trkpt lat="41.9761" lon="9.027">
        <ele>871</ele>
        <time>2015-01-15T13:39:00Z</time>
      </trkpt>
      <trkpt lat="41.97601" lon="9.02674">
        <ele>875</ele>
        <time>2015-01-15T13:39:24Z</time>
      </trkpt>
      <trkpt lat="41.97601" lon="9.02664">
        <ele>872</ele>
        <time>2015-01-15T13:39:48Z</time>
      </trkpt>
      <trkpt lat="41.97599" lon="9.02662">
        <ele>871</ele>
        <time>2015-01-15T13:40:00Z</time>
      </trkpt>
      <trkpt lat="41.97589" lon="9.02662">
        <ele>871</ele>
        <time>2015-01-15T13:40:07Z</time>
      </trkpt>
      <trkpt lat="41.97583" lon="9.02663">
        <ele>872</ele>
        <time>2015-01-15T13:40:10Z</time>
      </trkpt>
      <trkpt lat="41.97578" lon="9.02665">
        <ele>872</ele>
        <time>2015-01-15T13:40:13Z</time>
      </trkpt>
      <trkpt lat="41.97573" lon="9.02669">
        <ele>872</ele>
        <time>2015-01-15T13:40:19Z</time>
      </trkpt>
      <trkpt lat="41.97568" lon="9.02668">
        <ele>873</ele>
        <time>2015-01-15T13:40:25Z</time>
      </trkpt>
      <trkpt lat="41.97564" lon="9.02665">
        <ele>872</ele>
        <time>2015-01-15T13:40:30Z</time>
      </trkpt>
      <trkpt lat="41.97559" lon="9.0266">
        <ele>872</ele>
        <time>2015-01-15T13:40:37Z</time>
      </trkpt>
      <trkpt lat="41.97552" lon="9.02653">
        <ele>873</ele>
        <time>2015-01-15T13:40:45Z</time>
      </trkpt>
      <trkpt lat="41.97549" lon="9.02646">
        <ele>873</ele>
        <time>2015-01-15T13:40:51Z</time>
      </trkpt>
      <trkpt lat="41.97549" lon="9.0264">
        <ele>873</ele>
        <time>2015-01-15T13:40:55Z</time>
      </trkpt>
      <trkpt lat="41.97547" lon="9.02633">
        <ele>873</ele>
        <time>2015-01-15T13:40:59Z</time>
      </trkpt>
      <trkpt lat="41.97543" lon="9.02628">
        <ele>872</ele>
        <time>2015-01-15T13:41:05Z</time>
      </trkpt>
      <trkpt lat="41.97538" lon="9.02609">
        <ele>872</ele>
        <time>2015-01-15T13:41:20Z</time>
      </trkpt>
      <trkpt lat="41.97536" lon="9.02595">
        <ele>870</ele>
        <time>2015-01-15T13:41:28Z</time>
      </trkpt>
      <trkpt lat="41.97534" lon="9.02588">
        <ele>871</ele>
        <time>2015-01-15T13:41:33Z</time>
      </trkpt>
      <trkpt lat="41.97531" lon="9.02584">
        <ele>870</ele>
        <time>2015-01-15T13:41:37Z</time>
      </trkpt>
      <trkpt lat="41.97526" lon="9.02579">
        <ele>870</ele>
        <time>2015-01-15T13:41:43Z</time>
      </trkpt>
      <trkpt lat="41.97523" lon="9.02574">
        <ele>870</ele>
        <time>2015-01-15T13:41:47Z</time>
      </trkpt>
      <trkpt lat="41.97519" lon="9.02571">
        <ele>868</ele>
        <time>2015-01-15T13:41:52Z</time>
      </trkpt>
      <trkpt lat="41.97515" lon="9.02567">
        <ele>868</ele>
        <time>2015-01-15T13:41:57Z</time>
      </trkpt>
      <trkpt lat="41.97512" lon="9.02562">
        <ele>866</ele>
        <time>2015-01-15T13:42:03Z</time>
      </trkpt>
      <trkpt lat="41.97509" lon="9.02556">
        <ele>865</ele>
        <time>2015-01-15T13:42:08Z</time>
      </trkpt>
      <trkpt lat="41.97507" lon="9.0255">
        <ele>866</ele>
        <time>2015-01-15T13:42:13Z</time>
      </trkpt>
      <trkpt lat="41.97503" lon="9.02546">
        <ele>866</ele>
        <time>2015-01-15T13:42:17Z</time>
      </trkpt>
      <trkpt lat="41.975" lon="9.02541">
        <ele>867</ele>
        <time>2015-01-15T13:42:22Z</time>
      </trkpt>
      <trkpt lat="41.97495" lon="9.02529">
        <ele>865</ele>
        <time>2015-01-15T13:42:31Z</time>
      </trkpt>
      <trkpt lat="41.97491" lon="9.02526">
        <ele>862</ele>
        <time>2015-01-15T13:42:37Z</time>
      </trkpt>
      <trkpt lat="41.97485" lon="9.02527">
        <ele>863</ele>
        <time>2015-01-15T13:42:43Z</time>
      </trkpt>
      <trkpt lat="41.97477" lon="9.02535">
        <ele>866</ele>
        <time>2015-01-15T13:42:54Z</time>
      </trkpt>
      <trkpt lat="41.97469" lon="9.02545">
        <ele>865</ele>
        <time>2015-01-15T13:43:03Z</time>
      </trkpt>
      <trkpt lat="41.97466" lon="9.02548">
        <ele>864</ele>
        <time>2015-01-15T13:43:06Z</time>
      </trkpt>
      <trkpt lat="41.97462" lon="9.02552">
        <ele>864</ele>
        <time>2015-01-15T13:43:10Z</time>
      </trkpt>
      <trkpt lat="41.97457" lon="9.02551">
        <ele>865</ele>
        <time>2015-01-15T13:43:14Z</time>
      </trkpt>
      <trkpt lat="41.97429" lon="9.02525">
        <ele>861</ele>
        <time>2015-01-15T13:43:46Z</time>
      </trkpt>
      <trkpt lat="41.97425" lon="9.02521">
        <ele>861</ele>
        <time>2015-01-15T13:43:51Z</time>
      </trkpt>
      <trkpt lat="41.97421" lon="9.02517">
        <ele>861</ele>
        <time>2015-01-15T13:43:55Z</time>
      </trkpt>
      <trkpt lat="41.97409" lon="9.02504">
        <ele>857</ele>
        <time>2015-01-15T13:44:08Z</time>
      </trkpt>
      <trkpt lat="41.97402" lon="9.02494">
        <ele>860</ele>
        <time>2015-01-15T13:44:19Z</time>
      </trkpt>
      <trkpt lat="41.97399" lon="9.02489">
        <ele>859</ele>
        <time>2015-01-15T13:44:23Z</time>
      </trkpt>
      <trkpt lat="41.97397" lon="9.02482">
        <ele>859</ele>
        <time>2015-01-15T13:44:27Z</time>
      </trkpt>
      <trkpt lat="41.97393" lon="9.02466">
        <ele>858</ele>
        <time>2015-01-15T13:44:40Z</time>
      </trkpt>
      <trkpt lat="41.97389" lon="9.02444">
        <ele>860</ele>
        <time>2015-01-15T13:44:58Z</time>
      </trkpt>
      <trkpt lat="41.97386" lon="9.02438">
        <ele>860</ele>
        <time>2015-01-15T13:45:01Z</time>
      </trkpt>
      <trkpt lat="41.97383" lon="9.02432">
        <ele>860</ele>
        <time>2015-01-15T13:45:07Z</time>
      </trkpt>
      <trkpt lat="41.97379" lon="9.02425">
        <ele>861</ele>
        <time>2015-01-15T13:45:15Z</time>
      </trkpt>
      <trkpt lat="41.97375" lon="9.02423">
        <ele>861</ele>
        <time>2015-01-15T13:45:19Z</time>
      </trkpt>
      <trkpt lat="41.97368" lon="9.02421">
        <ele>860</ele>
        <time>2015-01-15T13:45:25Z</time>
      </trkpt>
      <trkpt lat="41.97361" lon="9.0242">
        <ele>860</ele>
        <time>2015-01-15T13:45:30Z</time>
      </trkpt>
      <trkpt lat="41.97352" lon="9.02418">
        <ele>859</ele>
        <time>2015-01-15T13:45:41Z</time>
      </trkpt>
      <trkpt lat="41.97342" lon="9.02417">
        <ele>858</ele>
        <time>2015-01-15T13:45:48Z</time>
      </trkpt>
      <trkpt lat="41.97337" lon="9.02419">
        <ele>858</ele>
        <time>2015-01-15T13:45:53Z</time>
      </trkpt>
      <trkpt lat="41.97332" lon="9.02419">
        <ele>857</ele>
        <time>2015-01-15T13:45:58Z</time>
      </trkpt>
      <trkpt lat="41.97314" lon="9.02431">
        <ele>864</ele>
        <time>2015-01-15T13:46:21Z</time>
      </trkpt>
      <trkpt lat="41.97305" lon="9.02446">
        <ele>861</ele>
        <time>2015-01-15T13:46:36Z</time>
      </trkpt>
      <trkpt lat="41.973" lon="9.02451">
        <ele>861</ele>
        <time>2015-01-15T13:46:42Z</time>
      </trkpt>
      <trkpt lat="41.97297" lon="9.02456">
        <ele>863</ele>
        <time>2015-01-15T13:46:48Z</time>
      </trkpt>
      <trkpt lat="41.97289" lon="9.02464">
        <ele>863</ele>
        <time>2015-01-15T13:46:55Z</time>
      </trkpt>
      <trkpt lat="41.97284" lon="9.02466">
        <ele>861</ele>
        <time>2015-01-15T13:47:01Z</time>
      </trkpt>
      <trkpt lat="41.97281" lon="9.02471">
        <ele>862</ele>
        <time>2015-01-15T13:47:07Z</time>
      </trkpt>
      <trkpt lat="41.97277" lon="9.02476">
        <ele>861</ele>
        <time>2015-01-15T13:47:11Z</time>
      </trkpt>
      <trkpt lat="41.97269" lon="9.02487">
        <ele>865</ele>
        <time>2015-01-15T13:47:23Z</time>
      </trkpt>
      <trkpt lat="41.97265" lon="9.02491">
        <ele>865</ele>
        <time>2015-01-15T13:47:29Z</time>
      </trkpt>
      <trkpt lat="41.97261" lon="9.02495">
        <ele>865</ele>
        <time>2015-01-15T13:47:34Z</time>
      </trkpt>
      <trkpt lat="41.97252" lon="9.02502">
        <ele>866</ele>
        <time>2015-01-15T13:47:45Z</time>
      </trkpt>
      <trkpt lat="41.9725" lon="9.02503">
        <ele>867</ele>
        <time>2015-01-15T13:48:02Z</time>
      </trkpt>
      <trkpt lat="41.97245" lon="9.02503">
        <ele>867</ele>
        <time>2015-01-15T13:48:10Z</time>
      </trkpt>
      <trkpt lat="41.9724" lon="9.02505">
        <ele>867</ele>
        <time>2015-01-15T13:48:16Z</time>
      </trkpt>
      <trkpt lat="41.97235" lon="9.02505">
        <ele>866</ele>
        <time>2015-01-15T13:48:21Z</time>
      </trkpt>
      <trkpt lat="41.97227" lon="9.02499">
        <ele>865</ele>
        <time>2015-01-15T13:48:32Z</time>
      </trkpt>
      <trkpt lat="41.97224" lon="9.02494">
        <ele>865</ele>
        <time>2015-01-15T13:48:45Z</time>
      </trkpt>
      <trkpt lat="41.97219" lon="9.02492">
        <ele>865</ele>
        <time>2015-01-15T13:48:54Z</time>
      </trkpt>
      <trkpt lat="41.97212" lon="9.02484">
        <ele>866</ele>
        <time>2015-01-15T13:49:03Z</time>
      </trkpt>
      <trkpt lat="41.97208" lon="9.0248">
        <ele>866</ele>
        <time>2015-01-15T13:49:08Z</time>
      </trkpt>
      <trkpt lat="41.97199" lon="9.02472">
        <ele>866</ele>
        <time>2015-01-15T13:49:18Z</time>
      </trkpt>
      <trkpt lat="41.97174" lon="9.02453">
        <ele>861</ele>
        <time>2015-01-15T13:49:52Z</time>
      </trkpt>
      <trkpt lat="41.9717" lon="9.02448">
        <ele>861</ele>
        <time>2015-01-15T13:49:57Z</time>
      </trkpt>
      <trkpt lat="41.97165" lon="9.02444">
        <ele>861</ele>
        <time>2015-01-15T13:50:02Z</time>
      </trkpt>
      <trkpt lat="41.97158" lon="9.02438">
        <ele>863</ele>
        <time>2015-01-15T13:50:31Z</time>
      </trkpt>
      <trkpt lat="41.9715" lon="9.0243">
        <ele>862</ele>
        <time>2015-01-15T13:50:43Z</time>
      </trkpt>
      <trkpt lat="41.97139" lon="9.02418">
        <ele>862</ele>
        <time>2015-01-15T13:50:56Z</time>
      </trkpt>
      <trkpt lat="41.97132" lon="9.0241">
        <ele>861</ele>
        <time>2015-01-15T13:51:06Z</time>
      </trkpt>
      <trkpt lat="41.97127" lon="9.02406">
        <ele>861</ele>
        <time>2015-01-15T13:51:11Z</time>
      </trkpt>
      <trkpt lat="41.9711" lon="9.02396">
        <ele>856</ele>
        <time>2015-01-15T13:51:36Z</time>
      </trkpt>
      <trkpt lat="41.97106" lon="9.02391">
        <ele>857</ele>
        <time>2015-01-15T13:52:06Z</time>
      </trkpt>
      <trkpt lat="41.97102" lon="9.02388">
        <ele>857</ele>
        <time>2015-01-15T13:52:13Z</time>
      </trkpt>
      <trkpt lat="41.97098" lon="9.02383">
        <ele>857</ele>
        <time>2015-01-15T13:52:17Z</time>
      </trkpt>
      <trkpt lat="41.97094" lon="9.02378">
        <ele>857</ele>
        <time>2015-01-15T13:52:22Z</time>
      </trkpt>
      <trkpt lat="41.9709" lon="9.02375">
        <ele>857</ele>
        <time>2015-01-15T13:52:27Z</time>
      </trkpt>
      <trkpt lat="41.97081" lon="9.02369">
        <ele>856</ele>
        <time>2015-01-15T13:52:37Z</time>
      </trkpt>
      <trkpt lat="41.97077" lon="9.02364">
        <ele>856</ele>
        <time>2015-01-15T13:52:43Z</time>
      </trkpt>
      <trkpt lat="41.97073" lon="9.0236">
        <ele>856</ele>
        <time>2015-01-15T13:52:47Z</time>
      </trkpt>
      <trkpt lat="41.97069" lon="9.02356">
        <ele>855</ele>
        <time>2015-01-15T13:52:51Z</time>
      </trkpt>
      <trkpt lat="41.97062" lon="9.02346">
        <ele>855</ele>
        <time>2015-01-15T13:53:01Z</time>
      </trkpt>
      <trkpt lat="41.97049" lon="9.02336">
        <ele>854</ele>
        <time>2015-01-15T13:53:15Z</time>
      </trkpt>
      <trkpt lat="41.97041" lon="9.0233">
        <ele>853</ele>
        <time>2015-01-15T13:53:24Z</time>
      </trkpt>
      <trkpt lat="41.97037" lon="9.02327">
        <ele>853</ele>
        <time>2015-01-15T13:53:29Z</time>
      </trkpt>
      <trkpt lat="41.97032" lon="9.02325">
        <ele>853</ele>
        <time>2015-01-15T13:53:35Z</time>
      </trkpt>
      <trkpt lat="41.97028" lon="9.02319">
        <ele>857</ele>
        <time>2015-01-15T13:54:02Z</time>
      </trkpt>
      <trkpt lat="41.97005" lon="9.02307">
        <ele>852</ele>
        <time>2015-01-15T13:54:25Z</time>
      </trkpt>
      <trkpt lat="41.96994" lon="9.02296">
        <ele>851</ele>
        <time>2015-01-15T13:54:39Z</time>
      </trkpt>
      <trkpt lat="41.96982" lon="9.02283">
        <ele>848</ele>
        <time>2015-01-15T13:54:53Z</time>
      </trkpt>
      <trkpt lat="41.96963" lon="9.02263">
        <ele>847</ele>
        <time>2015-01-15T13:55:16Z</time>
      </trkpt>
      <trkpt lat="41.96959" lon="9.02257">
        <ele>846</ele>
        <time>2015-01-15T13:55:22Z</time>
      </trkpt>
      <trkpt lat="41.96953" lon="9.02246">
        <ele>846</ele>
        <time>2015-01-15T13:55:31Z</time>
      </trkpt>
      <trkpt lat="41.96948" lon="9.02233">
        <ele>845</ele>
        <time>2015-01-15T13:55:41Z</time>
      </trkpt>
      <trkpt lat="41.96944" lon="9.02221">
        <ele>845</ele>
        <time>2015-01-15T13:55:49Z</time>
      </trkpt>
      <trkpt lat="41.96939" lon="9.02202">
        <ele>843</ele>
        <time>2015-01-15T13:56:04Z</time>
      </trkpt>
      <trkpt lat="41.96936" lon="9.02189">
        <ele>844</ele>
        <time>2015-01-15T13:56:13Z</time>
      </trkpt>
      <trkpt lat="41.96935" lon="9.02182">
        <ele>845</ele>
        <time>2015-01-15T13:56:17Z</time>
      </trkpt>
      <trkpt lat="41.96934" lon="9.02169">
        <ele>843</ele>
        <time>2015-01-15T13:56:27Z</time>
      </trkpt>
      <trkpt lat="41.96933" lon="9.02162">
        <ele>844</ele>
        <time>2015-01-15T13:56:34Z</time>
      </trkpt>
      <trkpt lat="41.96931" lon="9.02158">
        <ele>843</ele>
        <time>2015-01-15T13:57:14Z</time>
      </trkpt>
      <trkpt lat="41.96932" lon="9.02151">
        <ele>843</ele>
        <time>2015-01-15T13:57:33Z</time>
      </trkpt>
      <trkpt lat="41.96931" lon="9.0213">
        <ele>844</ele>
        <time>2015-01-15T13:57:48Z</time>
      </trkpt>
      <trkpt lat="41.9693" lon="9.02123">
        <ele>844</ele>
        <time>2015-01-15T13:57:53Z</time>
      </trkpt>
      <trkpt lat="41.9693" lon="9.02116">
        <ele>844</ele>
        <time>2015-01-15T13:57:58Z</time>
      </trkpt>
      <trkpt lat="41.96929" lon="9.02091">
        <ele>842</ele>
        <time>2015-01-15T13:58:15Z</time>
      </trkpt>
      <trkpt lat="41.96931" lon="9.02078">
        <ele>843</ele>
        <time>2015-01-15T13:58:25Z</time>
      </trkpt>
      <trkpt lat="41.96942" lon="9.02063">
        <ele>842</ele>
        <time>2015-01-15T13:58:40Z</time>
      </trkpt>
      <trkpt lat="41.96946" lon="9.0206">
        <ele>842</ele>
        <time>2015-01-15T13:58:45Z</time>
      </trkpt>
      <trkpt lat="41.96956" lon="9.02046">
        <ele>842</ele>
        <time>2015-01-15T13:58:57Z</time>
      </trkpt>
      <trkpt lat="41.96965" lon="9.02029">
        <ele>842</ele>
        <time>2015-01-15T13:59:11Z</time>
      </trkpt>
      <trkpt lat="41.96968" lon="9.02026">
        <ele>843</ele>
        <time>2015-01-15T13:59:20Z</time>
      </trkpt>
      <trkpt lat="41.96973" lon="9.0202">
        <ele>844</ele>
        <time>2015-01-15T14:00:42Z</time>
      </trkpt>
      <trkpt lat="41.96982" lon="9.02004">
        <ele>847</ele>
        <time>2015-01-15T14:00:57Z</time>
      </trkpt>
      <trkpt lat="41.96986" lon="9.01998">
        <ele>847</ele>
        <time>2015-01-15T14:01:02Z</time>
      </trkpt>
      <trkpt lat="41.96993" lon="9.01989">
        <ele>845</ele>
        <time>2015-01-15T14:01:10Z</time>
      </trkpt>
      <trkpt lat="41.96995" lon="9.01982">
        <ele>845</ele>
        <time>2015-01-15T14:01:14Z</time>
      </trkpt>
      <trkpt lat="41.96998" lon="9.0197">
        <ele>846</ele>
        <time>2015-01-15T14:01:22Z</time>
      </trkpt>
      <trkpt lat="41.97006" lon="9.01953">
        <ele>846</ele>
        <time>2015-01-15T14:01:35Z</time>
      </trkpt>
      <trkpt lat="41.9701" lon="9.01941">
        <ele>844</ele>
        <time>2015-01-15T14:01:48Z</time>
      </trkpt>
      <trkpt lat="41.97016" lon="9.0193">
        <ele>844</ele>
        <time>2015-01-15T14:01:56Z</time>
      </trkpt>
      <trkpt lat="41.97034" lon="9.01895">
        <ele>848</ele>
        <time>2015-01-15T14:02:25Z</time>
      </trkpt>
      <trkpt lat="41.97038" lon="9.01884">
        <ele>848</ele>
        <time>2015-01-15T14:02:33Z</time>
      </trkpt>
      <trkpt lat="41.97041" lon="9.01871">
        <ele>850</ele>
        <time>2015-01-15T14:02:46Z</time>
      </trkpt>
      <trkpt lat="41.97039" lon="9.01864">
        <ele>853</ele>
        <time>2015-01-15T14:03:08Z</time>
      </trkpt>
      <trkpt lat="41.97037" lon="9.01857">
        <ele>854</ele>
        <time>2015-01-15T14:03:13Z</time>
      </trkpt>
      <trkpt lat="41.97034" lon="9.01853">
        <ele>854</ele>
        <time>2015-01-15T14:03:18Z</time>
      </trkpt>
      <trkpt lat="41.9703" lon="9.01847">
        <ele>854</ele>
        <time>2015-01-15T14:03:25Z</time>
      </trkpt>
      <trkpt lat="41.97025" lon="9.01845">
        <ele>854</ele>
        <time>2015-01-15T14:03:29Z</time>
      </trkpt>
      <trkpt lat="41.97024" lon="9.01841">
        <ele>852</ele>
        <time>2015-01-15T14:03:38Z</time>
      </trkpt>
      <trkpt lat="41.97014" lon="9.01834">
        <ele>851</ele>
        <time>2015-01-15T14:03:46Z</time>
      </trkpt>
      <trkpt lat="41.96996" lon="9.01824">
        <ele>847</ele>
        <time>2015-01-15T14:04:08Z</time>
      </trkpt>
      <trkpt lat="41.96987" lon="9.01821">
        <ele>847</ele>
        <time>2015-01-15T14:04:22Z</time>
      </trkpt>
      <trkpt lat="41.96979" lon="9.01815">
        <ele>849</ele>
        <time>2015-01-15T14:04:32Z</time>
      </trkpt>
      <trkpt lat="41.96975" lon="9.01818">
        <ele>849</ele>
        <time>2015-01-15T14:04:36Z</time>
      </trkpt>
      <trkpt lat="41.96971" lon="9.01822">
        <ele>850</ele>
        <time>2015-01-15T14:04:40Z</time>
      </trkpt>
      <trkpt lat="41.96964" lon="9.0182">
        <ele>848</ele>
        <time>2015-01-15T14:04:44Z</time>
      </trkpt>
      <trkpt lat="41.96943" lon="9.01804">
        <ele>840</ele>
        <time>2015-01-15T14:05:04Z</time>
      </trkpt>
      <trkpt lat="41.96938" lon="9.01802">
        <ele>841</ele>
        <time>2015-01-15T14:05:10Z</time>
      </trkpt>
      <trkpt lat="41.96911" lon="9.0179">
        <ele>837</ele>
        <time>2015-01-15T14:05:50Z</time>
      </trkpt>
      <trkpt lat="41.96906" lon="9.01783">
        <ele>838</ele>
        <time>2015-01-15T14:06:06Z</time>
      </trkpt>
      <trkpt lat="41.96896" lon="9.01769">
        <ele>838</ele>
        <time>2015-01-15T14:06:19Z</time>
      </trkpt>
      <trkpt lat="41.96892" lon="9.01766">
        <ele>838</ele>
        <time>2015-01-15T14:06:24Z</time>
      </trkpt>
      <trkpt lat="41.96883" lon="9.0176">
        <ele>839</ele>
        <time>2015-01-15T14:06:34Z</time>
      </trkpt>
      <trkpt lat="41.96879" lon="9.01758">
        <ele>838</ele>
        <time>2015-01-15T14:06:38Z</time>
      </trkpt>
      <trkpt lat="41.96846" lon="9.01742">
        <ele>838</ele>
        <time>2015-01-15T14:07:10Z</time>
      </trkpt>
      <trkpt lat="41.96841" lon="9.0174">
        <ele>838</ele>
        <time>2015-01-15T14:07:15Z</time>
      </trkpt>
      <trkpt lat="41.96818" lon="9.01726">
        <ele>836</ele>
        <time>2015-01-15T14:07:38Z</time>
      </trkpt>
      <trkpt lat="41.96812" lon="9.01715">
        <ele>836</ele>
        <time>2015-01-15T14:07:49Z</time>
      </trkpt>
      <trkpt lat="41.96807" lon="9.0169">
        <ele>835</ele>
        <time>2015-01-15T14:08:04Z</time>
      </trkpt>
      <trkpt lat="41.96802" lon="9.01664">
        <ele>835</ele>
        <time>2015-01-15T14:08:23Z</time>
      </trkpt>
      <trkpt lat="41.96802" lon="9.01658">
        <ele>836</ele>
        <time>2015-01-15T14:08:28Z</time>
      </trkpt>
      <trkpt lat="41.96804" lon="9.01638">
        <ele>836</ele>
        <time>2015-01-15T14:08:44Z</time>
      </trkpt>
      <trkpt lat="41.96794" lon="9.01614">
        <ele>840</ele>
        <time>2015-01-15T14:09:03Z</time>
      </trkpt>
      <trkpt lat="41.96791" lon="9.01608">
        <ele>841</ele>
        <time>2015-01-15T14:09:07Z</time>
      </trkpt>
      <trkpt lat="41.96784" lon="9.01598">
        <ele>840</ele>
        <time>2015-01-15T14:09:17Z</time>
      </trkpt>
      <trkpt lat="41.96779" lon="9.01593">
        <ele>840</ele>
        <time>2015-01-15T14:09:22Z</time>
      </trkpt>
      <trkpt lat="41.96777" lon="9.01588">
        <ele>840</ele>
        <time>2015-01-15T14:09:26Z</time>
      </trkpt>
      <trkpt lat="41.96767" lon="9.01573">
        <ele>837</ele>
        <time>2015-01-15T14:09:39Z</time>
      </trkpt>
      <trkpt lat="41.96764" lon="9.01569">
        <ele>836</ele>
        <time>2015-01-15T14:09:44Z</time>
      </trkpt>
      <trkpt lat="41.96759" lon="9.01565">
        <ele>836</ele>
        <time>2015-01-15T14:09:49Z</time>
      </trkpt>
      <trkpt lat="41.96757" lon="9.01562">
        <ele>836</ele>
        <time>2015-01-15T14:09:55Z</time>
      </trkpt>
      <trkpt lat="41.96754" lon="9.01558">
        <ele>836</ele>
        <time>2015-01-15T14:10:02Z</time>
      </trkpt>
      <trkpt lat="41.96751" lon="9.01554">
        <ele>835</ele>
        <time>2015-01-15T14:10:07Z</time>
      </trkpt>
      <trkpt lat="41.96748" lon="9.01548">
        <ele>835</ele>
        <time>2015-01-15T14:10:12Z</time>
      </trkpt>
      <trkpt lat="41.96729" lon="9.01526">
        <ele>834</ele>
        <time>2015-01-15T14:10:34Z</time>
      </trkpt>
      <trkpt lat="41.96721" lon="9.01519">
        <ele>831</ele>
        <time>2015-01-15T14:10:57Z</time>
      </trkpt>
      <trkpt lat="41.96717" lon="9.01507">
        <ele>831</ele>
        <time>2015-01-15T14:11:07Z</time>
      </trkpt>
      <trkpt lat="41.96714" lon="9.01501">
        <ele>832</ele>
        <time>2015-01-15T14:11:12Z</time>
      </trkpt>
      <trkpt lat="41.9671" lon="9.01497">
        <ele>832</ele>
        <time>2015-01-15T14:11:16Z</time>
      </trkpt>
      <trkpt lat="41.96707" lon="9.01492">
        <ele>831</ele>
        <time>2015-01-15T14:11:20Z</time>
      </trkpt>
      <trkpt lat="41.96702" lon="9.0148">
        <ele>831</ele>
        <time>2015-01-15T14:11:30Z</time>
      </trkpt>
      <trkpt lat="41.96692" lon="9.01448">
        <ele>828</ele>
        <time>2015-01-15T14:12:06Z</time>
      </trkpt>
      <trkpt lat="41.96687" lon="9.0143">
        <ele>829</ele>
        <time>2015-01-15T14:12:20Z</time>
      </trkpt>
      <trkpt lat="41.96685" lon="9.01424">
        <ele>829</ele>
        <time>2015-01-15T14:12:26Z</time>
      </trkpt>
      <trkpt lat="41.96681" lon="9.01411">
        <ele>830</ele>
        <time>2015-01-15T14:12:36Z</time>
      </trkpt>
      <trkpt lat="41.9668" lon="9.01397">
        <ele>829</ele>
        <time>2015-01-15T14:12:46Z</time>
      </trkpt>
      <trkpt lat="41.96681" lon="9.01377">
        <ele>828</ele>
        <time>2015-01-15T14:13:01Z</time>
      </trkpt>
      <trkpt lat="41.96684" lon="9.01357">
        <ele>829</ele>
        <time>2015-01-15T14:13:17Z</time>
      </trkpt>
      <trkpt lat="41.9669" lon="9.01334">
        <ele>824</ele>
        <time>2015-01-15T14:13:54Z</time>
      </trkpt>
      <trkpt lat="41.96691" lon="9.01327">
        <ele>824</ele>
        <time>2015-01-15T14:13:58Z</time>
      </trkpt>
      <trkpt lat="41.96691" lon="9.01321">
        <ele>823</ele>
        <time>2015-01-15T14:14:02Z</time>
      </trkpt>
      <trkpt lat="41.9669" lon="9.01308">
        <ele>822</ele>
        <time>2015-01-15T14:14:11Z</time>
      </trkpt>
      <trkpt lat="41.9669" lon="9.01302">
        <ele>822</ele>
        <time>2015-01-15T14:14:17Z</time>
      </trkpt>
      <trkpt lat="41.96689" lon="9.01294">
        <ele>823</ele>
        <time>2015-01-15T14:14:22Z</time>
      </trkpt>
      <trkpt lat="41.9669" lon="9.01287">
        <ele>823</ele>
        <time>2015-01-15T14:14:27Z</time>
      </trkpt>
      <trkpt lat="41.9669" lon="9.0128">
        <ele>823</ele>
        <time>2015-01-15T14:14:32Z</time>
      </trkpt>
      <trkpt lat="41.96693" lon="9.0126">
        <ele>823</ele>
        <time>2015-01-15T14:14:47Z</time>
      </trkpt>
      <trkpt lat="41.96696" lon="9.01241">
        <ele>821</ele>
        <time>2015-01-15T14:15:01Z</time>
      </trkpt>
      <trkpt lat="41.96695" lon="9.01234">
        <ele>821</ele>
        <time>2015-01-15T14:15:06Z</time>
      </trkpt>
      <trkpt lat="41.96696" lon="9.01219">
        <ele>820</ele>
        <time>2015-01-15T14:15:17Z</time>
      </trkpt>
      <trkpt lat="41.96693" lon="9.01212">
        <ele>821</ele>
        <time>2015-01-15T14:15:28Z</time>
      </trkpt>
      <trkpt lat="41.96689" lon="9.01194">
        <ele>819</ele>
        <time>2015-01-15T14:15:41Z</time>
      </trkpt>
      <trkpt lat="41.96683" lon="9.01183">
        <ele>819</ele>
        <time>2015-01-15T14:15:51Z</time>
      </trkpt>
      <trkpt lat="41.9668" lon="9.01178">
        <ele>819</ele>
        <time>2015-01-15T14:15:55Z</time>
      </trkpt>
      <trkpt lat="41.96664" lon="9.01137">
        <ele>820</ele>
        <time>2015-01-15T14:16:28Z</time>
      </trkpt>
      <trkpt lat="41.96649" lon="9.01106">
        <ele>816</ele>
        <time>2015-01-15T14:16:57Z</time>
      </trkpt>
      <trkpt lat="41.96648" lon="9.01099">
        <ele>816</ele>
        <time>2015-01-15T14:17:01Z</time>
      </trkpt>
      <trkpt lat="41.96646" lon="9.01094">
        <ele>816</ele>
        <time>2015-01-15T14:17:05Z</time>
      </trkpt>
      <trkpt lat="41.96643" lon="9.01089">
        <ele>815</ele>
        <time>2015-01-15T14:17:10Z</time>
      </trkpt>
      <trkpt lat="41.9664" lon="9.01076">
        <ele>816</ele>
        <time>2015-01-15T14:17:20Z</time>
      </trkpt>
      <trkpt lat="41.96639" lon="9.01063">
        <ele>815</ele>
        <time>2015-01-15T14:17:30Z</time>
      </trkpt>
      <trkpt lat="41.96638" lon="9.01056">
        <ele>815</ele>
        <time>2015-01-15T14:17:35Z</time>
      </trkpt>
      <trkpt lat="41.96632" lon="9.0103">
        <ele>813</ele>
        <time>2015-01-15T14:17:54Z</time>
      </trkpt>
      <trkpt lat="41.96625" lon="9.0102">
        <ele>816</ele>
        <time>2015-01-15T14:18:06Z</time>
      </trkpt>
      <trkpt lat="41.96623" lon="9.01006">
        <ele>817</ele>
        <time>2015-01-15T14:18:14Z</time>
      </trkpt>
      <trkpt lat="41.96622" lon="9.01">
        <ele>816</ele>
        <time>2015-01-15T14:18:24Z</time>
      </trkpt>
      <trkpt lat="41.96621" lon="9.00992">
        <ele>815</ele>
        <time>2015-01-15T14:18:35Z</time>
      </trkpt>
      <trkpt lat="41.96619" lon="9.00986">
        <ele>816</ele>
        <time>2015-01-15T14:18:40Z</time>
      </trkpt>
      <trkpt lat="41.96617" lon="9.0098">
        <ele>816</ele>
        <time>2015-01-15T14:18:45Z</time>
      </trkpt>
      <trkpt lat="41.96616" lon="9.0096">
        <ele>814</ele>
        <time>2015-01-15T14:19:01Z</time>
      </trkpt>
      <trkpt lat="41.96614" lon="9.00955">
        <ele>814</ele>
        <time>2015-01-15T14:19:08Z</time>
      </trkpt>
      <trkpt lat="41.96613" lon="9.00952">
        <ele>815</ele>
        <time>2015-01-15T14:19:35Z</time>
      </trkpt>
      <trkpt lat="41.96608" lon="9.00936">
        <ele>816</ele>
        <time>2015-01-15T14:19:57Z</time>
      </trkpt>
      <trkpt lat="41.96604" lon="9.00922">
        <ele>815</ele>
        <time>2015-01-15T14:20:09Z</time>
      </trkpt>
      <trkpt lat="41.96602" lon="9.00919">
        <ele>815</ele>
        <time>2015-01-15T14:20:16Z</time>
      </trkpt>
      <trkpt lat="41.96601" lon="9.00916">
        <ele>815</ele>
        <time>2015-01-15T14:20:22Z</time>
      </trkpt>
      <trkpt lat="41.96599" lon="9.00911">
        <ele>815</ele>
        <time>2015-01-15T14:20:32Z</time>
      </trkpt>
      <trkpt lat="41.96598" lon="9.00906">
        <ele>815</ele>
        <time>2015-01-15T14:21:05Z</time>
      </trkpt>
      <trkpt lat="41.96597" lon="9.00896">
        <ele>811</ele>
        <time>2015-01-15T14:22:19Z</time>
      </trkpt>
      <trkpt lat="41.96596" lon="9.00893">
        <ele>812</ele>
        <time>2015-01-15T14:22:35Z</time>
      </trkpt>
      <trkpt lat="41.96593" lon="9.00887">
        <ele>814</ele>
        <time>2015-01-15T14:22:44Z</time>
      </trkpt>
      <trkpt lat="41.96592" lon="9.00884">
        <ele>814</ele>
        <time>2015-01-15T14:23:01Z</time>
      </trkpt>
      <trkpt lat="41.96587" lon="9.00878">
        <ele>813</ele>
        <time>2015-01-15T14:23:50Z</time>
      </trkpt>
      <trkpt lat="41.96584" lon="9.00873">
        <ele>813</ele>
        <time>2015-01-15T14:23:57Z</time>
      </trkpt>
      <trkpt lat="41.96579" lon="9.00854">
        <ele>816</ele>
        <time>2015-01-15T14:24:23Z</time>
      </trkpt>
      <trkpt lat="41.96577" lon="9.00841">
        <ele>814</ele>
        <time>2015-01-15T14:24:32Z</time>
      </trkpt>
      <trkpt lat="41.96572" lon="9.00828">
        <ele>813</ele>
        <time>2015-01-15T14:24:49Z</time>
      </trkpt>
      <trkpt lat="41.96569" lon="9.00823">
        <ele>812</ele>
        <time>2015-01-15T14:24:55Z</time>
      </trkpt>
      <trkpt lat="41.96565" lon="9.00821">
        <ele>812</ele>
        <time>2015-01-15T14:25:02Z</time>
      </trkpt>
      <trkpt lat="41.96561" lon="9.00817">
        <ele>811</ele>
        <time>2015-01-15T14:25:11Z</time>
      </trkpt>
      <trkpt lat="41.96561" lon="9.00813">
        <ele>809</ele>
        <time>2015-01-15T14:25:18Z</time>
      </trkpt>
      <trkpt lat="41.96556" lon="9.0081">
        <ele>808</ele>
        <time>2015-01-15T14:25:27Z</time>
      </trkpt>
      <trkpt lat="41.96554" lon="9.00806">
        <ele>808</ele>
        <time>2015-01-15T14:25:36Z</time>
      </trkpt>
      <trkpt lat="41.96551" lon="9.008">
        <ele>806</ele>
        <time>2015-01-15T14:25:45Z</time>
      </trkpt>
      <trkpt lat="41.96549" lon="9.00794">
        <ele>806</ele>
        <time>2015-01-15T14:25:54Z</time>
      </trkpt>
      <trkpt lat="41.96545" lon="9.00792">
        <ele>805</ele>
        <time>2015-01-15T14:26:03Z</time>
      </trkpt>
      <trkpt lat="41.96542" lon="9.00789">
        <ele>807</ele>
        <time>2015-01-15T14:27:22Z</time>
      </trkpt>
      <trkpt lat="41.96539" lon="9.00787">
        <ele>807</ele>
        <time>2015-01-15T14:27:34Z</time>
      </trkpt>
      <trkpt lat="41.96536" lon="9.0078">
        <ele>802</ele>
        <time>2015-01-15T14:28:09Z</time>
      </trkpt>
      <trkpt lat="41.96533" lon="9.0078">
        <ele>799</ele>
        <time>2015-01-15T14:29:21Z</time>
      </trkpt>
      <trkpt lat="41.96528" lon="9.00777">
        <ele>796</ele>
        <time>2015-01-15T14:29:40Z</time>
      </trkpt>
      <trkpt lat="41.96528" lon="9.00773">
        <ele>795</ele>
        <time>2015-01-15T14:29:50Z</time>
      </trkpt>
      <trkpt lat="41.96526" lon="9.0077">
        <ele>795</ele>
        <time>2015-01-15T14:29:56Z</time>
      </trkpt>
      <trkpt lat="41.96521" lon="9.00765">
        <ele>791</ele>
        <time>2015-01-15T14:30:46Z</time>
      </trkpt>
      <trkpt lat="41.96518" lon="9.00763">
        <ele>791</ele>
        <time>2015-01-15T14:30:52Z</time>
      </trkpt>
      <trkpt lat="41.96514" lon="9.00762">
        <ele>790</ele>
        <time>2015-01-15T14:31:03Z</time>
      </trkpt>
      <trkpt lat="41.96509" lon="9.00756">
        <ele>789</ele>
        <time>2015-01-15T14:31:32Z</time>
      </trkpt>
      <trkpt lat="41.96507" lon="9.00753">
        <ele>789</ele>
        <time>2015-01-15T14:31:38Z</time>
      </trkpt>
      <trkpt lat="41.96501" lon="9.00744">
        <ele>784</ele>
        <time>2015-01-15T14:32:06Z</time>
      </trkpt>
      <trkpt lat="41.96497" lon="9.00728">
        <ele>784</ele>
        <time>2015-01-15T14:32:27Z</time>
      </trkpt>
      <trkpt lat="41.96488" lon="9.00706">
        <ele>780</ele>
        <time>2015-01-15T14:32:56Z</time>
      </trkpt>
      <trkpt lat="41.96483" lon="9.00705">
        <ele>779</ele>
        <time>2015-01-15T14:33:05Z</time>
      </trkpt>
      <trkpt lat="41.9648" lon="9.007">
        <ele>778</ele>
        <time>2015-01-15T14:33:13Z</time>
      </trkpt>
      <trkpt lat="41.96478" lon="9.00694">
        <ele>776</ele>
        <time>2015-01-15T14:33:22Z</time>
      </trkpt>
      <trkpt lat="41.9647" lon="9.0069">
        <ele>770</ele>
        <time>2015-01-15T14:33:59Z</time>
      </trkpt>
      <trkpt lat="41.96468" lon="9.00689">
        <ele>768</ele>
        <time>2015-01-15T14:34:11Z</time>
      </trkpt>
      <trkpt lat="41.96466" lon="9.00687">
        <ele>768</ele>
        <time>2015-01-15T14:34:18Z</time>
      </trkpt>
      <trkpt lat="41.96463" lon="9.00686">
        <ele>768</ele>
        <time>2015-01-15T14:34:29Z</time>
      </trkpt>
      <trkpt lat="41.96456" lon="9.00682">
        <ele>767</ele>
        <time>2015-01-15T14:34:47Z</time>
      </trkpt>
      <trkpt lat="41.96451" lon="9.0068">
        <ele>766</ele>
        <time>2015-01-15T14:34:54Z</time>
      </trkpt>
      <trkpt lat="41.96447" lon="9.00678">
        <ele>766</ele>
        <time>2015-01-15T14:35:02Z</time>
      </trkpt>
      <trkpt lat="41.96445" lon="9.00673">
        <ele>764</ele>
        <time>2015-01-15T14:35:16Z</time>
      </trkpt>
      <trkpt lat="41.96443" lon="9.00663">
        <ele>760</ele>
        <time>2015-01-15T14:36:02Z</time>
      </trkpt>
      <trkpt lat="41.96443" lon="9.0065">
        <ele>758</ele>
        <time>2015-01-15T14:36:31Z</time>
      </trkpt>
      <trkpt lat="41.96443" lon="9.00641">
        <ele>757</ele>
        <time>2015-01-15T14:36:50Z</time>
      </trkpt>
      <trkpt lat="41.96451" lon="9.00616">
        <ele>751</ele>
        <time>2015-01-15T14:37:35Z</time>
      </trkpt>
      <trkpt lat="41.96451" lon="9.006">
        <ele>748</ele>
        <time>2015-01-15T14:38:58Z</time>
      </trkpt>
      <trkpt lat="41.96457" lon="9.00583">
        <ele>750</ele>
        <time>2015-01-15T14:39:12Z</time>
      </trkpt>
      <trkpt lat="41.96463" lon="9.00574">
        <ele>750</ele>
        <time>2015-01-15T14:39:24Z</time>
      </trkpt>
      <trkpt lat="41.96467" lon="9.00571">
        <ele>748</ele>
        <time>2015-01-15T14:40:03Z</time>
      </trkpt>
      <trkpt lat="41.96471" lon="9.00566">
        <ele>748</ele>
        <time>2015-01-15T14:40:37Z</time>
      </trkpt>
      <trkpt lat="41.96475" lon="9.00563">
        <ele>747</ele>
        <time>2015-01-15T14:40:42Z</time>
      </trkpt>
      <trkpt lat="41.9648" lon="9.00563">
        <ele>746</ele>
        <time>2015-01-15T14:40:50Z</time>
      </trkpt>
      <trkpt lat="41.9649" lon="9.00567">
        <ele>744</ele>
        <time>2015-01-15T14:41:03Z</time>
      </trkpt>
      <trkpt lat="41.96498" lon="9.00575">
        <ele>743</ele>
        <time>2015-01-15T14:41:14Z</time>
      </trkpt>
      <trkpt lat="41.96501" lon="9.0058">
        <ele>743</ele>
        <time>2015-01-15T14:41:21Z</time>
      </trkpt>
      <trkpt lat="41.96502" lon="9.00587">
        <ele>744</ele>
        <time>2015-01-15T14:41:56Z</time>
      </trkpt>
      <trkpt lat="41.96508" lon="9.00606">
        <ele>744</ele>
        <time>2015-01-15T14:42:14Z</time>
      </trkpt>
      <trkpt lat="41.96515" lon="9.00622">
        <ele>745</ele>
        <time>2015-01-15T14:42:30Z</time>
      </trkpt>
      <trkpt lat="41.9652" lon="9.00628">
        <ele>745</ele>
        <time>2015-01-15T14:42:37Z</time>
      </trkpt>
      <trkpt lat="41.96529" lon="9.00632">
        <ele>743</ele>
        <time>2015-01-15T14:42:45Z</time>
      </trkpt>
      <trkpt lat="41.9654" lon="9.00632">
        <ele>743</ele>
        <time>2015-01-15T14:42:57Z</time>
      </trkpt>
      <trkpt lat="41.96552" lon="9.00629">
        <ele>743</ele>
        <time>2015-01-15T14:43:07Z</time>
      </trkpt>
      <trkpt lat="41.9656" lon="9.00631">
        <ele>743</ele>
        <time>2015-01-15T14:43:14Z</time>
      </trkpt>
      <trkpt lat="41.96565" lon="9.00634">
        <ele>742</ele>
        <time>2015-01-15T14:43:18Z</time>
      </trkpt>
      <trkpt lat="41.9657" lon="9.00636">
        <ele>742</ele>
        <time>2015-01-15T14:43:23Z</time>
      </trkpt>
      <trkpt lat="41.96576" lon="9.00642">
        <ele>742</ele>
        <time>2015-01-15T14:43:32Z</time>
      </trkpt>
      <trkpt lat="41.9658" lon="9.00645">
        <ele>742</ele>
        <time>2015-01-15T14:43:39Z</time>
      </trkpt>
      <trkpt lat="41.96594" lon="9.00657">
        <ele>747</ele>
        <time>2015-01-15T14:44:01Z</time>
      </trkpt>
      <trkpt lat="41.96608" lon="9.00664">
        <ele>747</ele>
        <time>2015-01-15T14:44:14Z</time>
      </trkpt>
      <trkpt lat="41.96612" lon="9.00668">
        <ele>747</ele>
        <time>2015-01-15T14:44:18Z</time>
      </trkpt>
      <trkpt lat="41.96627" lon="9.00673">
        <ele>743</ele>
        <time>2015-01-15T14:44:38Z</time>
      </trkpt>
      <trkpt lat="41.96632" lon="9.00667">
        <ele>743</ele>
        <time>2015-01-15T14:44:46Z</time>
      </trkpt>
      <trkpt lat="41.96636" lon="9.00663">
        <ele>743</ele>
        <time>2015-01-15T14:44:49Z</time>
      </trkpt>
      <trkpt lat="41.9664" lon="9.00658">
        <ele>742</ele>
        <time>2015-01-15T14:45:06Z</time>
      </trkpt>
      <trkpt lat="41.96644" lon="9.00648">
        <ele>747</ele>
        <time>2015-01-15T14:45:21Z</time>
      </trkpt>
      <trkpt lat="41.96647" lon="9.00643">
        <ele>747</ele>
        <time>2015-01-15T14:45:25Z</time>
      </trkpt>
      <trkpt lat="41.96657" lon="9.00639">
        <ele>739</ele>
        <time>2015-01-15T14:45:51Z</time>
      </trkpt>
      <trkpt lat="41.96664" lon="9.00631">
        <ele>735</ele>
        <time>2015-01-15T14:46:20Z</time>
      </trkpt>
      <trkpt lat="41.96679" lon="9.00618">
        <ele>739</ele>
        <time>2015-01-15T14:46:42Z</time>
      </trkpt>
      <trkpt lat="41.96685" lon="9.00617">
        <ele>739</ele>
        <time>2015-01-15T14:46:48Z</time>
      </trkpt>
      <trkpt lat="41.96693" lon="9.00613">
        <ele>740</ele>
        <time>2015-01-15T14:46:52Z</time>
      </trkpt>
      <trkpt lat="41.9671" lon="9.00604">
        <ele>751</ele>
        <time>2015-01-15T14:47:15Z</time>
      </trkpt>
      <trkpt lat="41.96718" lon="9.00609">
        <ele>753</ele>
        <time>2015-01-15T14:47:23Z</time>
      </trkpt>
      <trkpt lat="41.96721" lon="9.00614">
        <ele>750</ele>
        <time>2015-01-15T14:47:34Z</time>
      </trkpt>
      <trkpt lat="41.96732" lon="9.0062">
        <ele>747</ele>
        <time>2015-01-15T14:47:43Z</time>
      </trkpt>
      <trkpt lat="41.96738" lon="9.00616">
        <ele>748</ele>
        <time>2015-01-15T14:47:47Z</time>
      </trkpt>
      <trkpt lat="41.96752" lon="9.00611">
        <ele>745</ele>
        <time>2015-01-15T14:47:56Z</time>
      </trkpt>
      <trkpt lat="41.96757" lon="9.0061">
        <ele>745</ele>
        <time>2015-01-15T14:48:01Z</time>
      </trkpt>
      <trkpt lat="41.96758" lon="9.00613">
        <ele>744</ele>
        <time>2015-01-15T14:48:38Z</time>
      </trkpt>
      <trkpt lat="41.96763" lon="9.00613">
        <ele>742</ele>
        <time>2015-01-15T14:54:24Z</time>
      </trkpt>
      <trkpt lat="41.96773" lon="9.0061">
        <ele>743</ele>
        <time>2015-01-15T14:55:25Z</time>
      </trkpt>
      <trkpt lat="41.96779" lon="9.0061">
        <ele>744</ele>
        <time>2015-01-15T14:55:31Z</time>
      </trkpt>
      <trkpt lat="41.96794" lon="9.00603">
        <ele>747</ele>
        <time>2015-01-15T14:55:49Z</time>
      </trkpt>
      <trkpt lat="41.96808" lon="9.00608">
        <ele>751</ele>
        <time>2015-01-15T14:56:11Z</time>
      </trkpt>
      <trkpt lat="41.96852" lon="9.0061">
        <ele>738</ele>
        <time>2015-01-15T14:56:38Z</time>
      </trkpt>
      <trkpt lat="41.96857" lon="9.00611">
        <ele>738</ele>
        <time>2015-01-15T14:56:43Z</time>
      </trkpt>
      <trkpt lat="41.96862" lon="9.00612">
        <ele>739</ele>
        <time>2015-01-15T14:56:46Z</time>
      </trkpt>
      <trkpt lat="41.96866" lon="9.00614">
        <ele>737</ele>
        <time>2015-01-15T14:56:51Z</time>
      </trkpt>
      <trkpt lat="41.96872" lon="9.00613">
        <ele>738</ele>
        <time>2015-01-15T14:56:55Z</time>
      </trkpt>
      <trkpt lat="41.96887" lon="9.00613">
        <ele>740</ele>
        <time>2015-01-15T14:57:13Z</time>
      </trkpt>
      <trkpt lat="41.96891" lon="9.00616">
        <ele>739</ele>
        <time>2015-01-15T14:57:16Z</time>
      </trkpt>
      <trkpt lat="41.969" lon="9.00622">
        <ele>734</ele>
        <time>2015-01-15T14:57:25Z</time>
      </trkpt>
      <trkpt lat="41.96905" lon="9.00622">
        <ele>734</ele>
        <time>2015-01-15T14:57:32Z</time>
      </trkpt>
      <trkpt lat="41.96912" lon="9.00626">
        <ele>733</ele>
        <time>2015-01-15T14:57:39Z</time>
      </trkpt>
      <trkpt lat="41.96916" lon="9.00631">
        <ele>733</ele>
        <time>2015-01-15T14:57:44Z</time>
      </trkpt>
      <trkpt lat="41.9692" lon="9.00635">
        <ele>732</ele>
        <time>2015-01-15T14:57:47Z</time>
      </trkpt>
      <trkpt lat="41.96925" lon="9.00637">
        <ele>730</ele>
        <time>2015-01-15T14:57:55Z</time>
      </trkpt>
      <trkpt lat="41.9693" lon="9.00638">
        <ele>730</ele>
        <time>2015-01-15T14:57:59Z</time>
      </trkpt>
      <trkpt lat="41.96935" lon="9.0064">
        <ele>731</ele>
        <time>2015-01-15T14:58:04Z</time>
      </trkpt>
      <trkpt lat="41.96939" lon="9.00643">
        <ele>730</ele>
        <time>2015-01-15T14:58:10Z</time>
      </trkpt>
      <trkpt lat="41.96954" lon="9.00648">
        <ele>732</ele>
        <time>2015-01-15T14:58:26Z</time>
      </trkpt>
      <trkpt lat="41.96959" lon="9.0065">
        <ele>732</ele>
        <time>2015-01-15T14:58:31Z</time>
      </trkpt>
      <trkpt lat="41.96963" lon="9.00655">
        <ele>731</ele>
        <time>2015-01-15T14:58:36Z</time>
      </trkpt>
      <trkpt lat="41.96971" lon="9.00662">
        <ele>728</ele>
        <time>2015-01-15T14:58:46Z</time>
      </trkpt>
      <trkpt lat="41.96977" lon="9.00663">
        <ele>728</ele>
        <time>2015-01-15T14:58:51Z</time>
      </trkpt>
      <trkpt lat="41.96981" lon="9.00662">
        <ele>730</ele>
        <time>2015-01-15T14:58:57Z</time>
      </trkpt>
      <trkpt lat="41.96986" lon="9.00662">
        <ele>730</ele>
        <time>2015-01-15T14:59:01Z</time>
      </trkpt>
      <trkpt lat="41.97008" lon="9.0067">
        <ele>722</ele>
        <time>2015-01-15T15:00:26Z</time>
      </trkpt>
      <trkpt lat="41.9701" lon="9.00669">
        <ele>722</ele>
        <time>2015-01-15T15:00:32Z</time>
      </trkpt>
    </trkseg>
  </trk>
</gpx>